<?xml version="1.0" encoding="UTF-8" standalone="no" ?>
<gpx xmlns="http://www.topografix.com/GPX/1/1" xmlns:xsi="http://www.w3.org/2001/XMLSchema-instance" xsi:schemaLocation="http://www.topografix.com/GPX/1/1 http://www.topografix.com/GPX/1/1/gpx.xsd" version="1.1" creator="VisuGPX - https://www.visugpx.com">
  <metadata>
    <name>ballade Bouzigues</name>
  </metadata>
  <trk>
    <name><![CDATA[ballade Bouzigues_1]]></name>
    <trkseg>
      <trkpt lat="43.45437" lon="3.65311">
        <ele>32.099998474121</ele>
        <time>2020-02-05T08:26:40Z</time>
      </trkpt>
      <trkpt lat="43.45437" lon="3.65311">
        <ele>32.099998474121</ele>
        <time>2020-02-05T08:26:41Z</time>
      </trkpt>
      <trkpt lat="43.45437" lon="3.6531">
        <ele>34.099998474121</ele>
        <time>2020-02-05T08:26:43Z</time>
      </trkpt>
      <trkpt lat="43.4544" lon="3.65306">
        <ele>34.200000762939</ele>
        <time>2020-02-05T08:27:09Z</time>
      </trkpt>
      <trkpt lat="43.45442" lon="3.65301">
        <ele>31.200000762939</ele>
        <time>2020-02-05T08:27:13Z</time>
      </trkpt>
      <trkpt lat="43.45444" lon="3.65299">
        <ele>31.200000762939</ele>
        <time>2020-02-05T08:27:15Z</time>
      </trkpt>
      <trkpt lat="43.45445" lon="3.65298">
        <ele>31.200000762939</ele>
        <time>2020-02-05T08:27:16Z</time>
      </trkpt>
      <trkpt lat="43.45456" lon="3.65284">
        <ele>33.200000762939</ele>
        <time>2020-02-05T08:27:33Z</time>
      </trkpt>
      <trkpt lat="43.45468" lon="3.65272">
        <ele>34.200000762939</ele>
        <time>2020-02-05T08:27:45Z</time>
      </trkpt>
      <trkpt lat="43.45479" lon="3.65259">
        <ele>36.200000762939</ele>
        <time>2020-02-05T08:27:57Z</time>
      </trkpt>
      <trkpt lat="43.45486" lon="3.65252">
        <ele>38.200000762939</ele>
        <time>2020-02-05T08:28:04Z</time>
      </trkpt>
      <trkpt lat="43.45493" lon="3.65244">
        <ele>39.200000762939</ele>
        <time>2020-02-05T08:28:13Z</time>
      </trkpt>
      <trkpt lat="43.45498" lon="3.65236">
        <ele>38.200000762939</ele>
        <time>2020-02-05T08:28:22Z</time>
      </trkpt>
      <trkpt lat="43.455" lon="3.65231">
        <ele>37.200000762939</ele>
        <time>2020-02-05T08:28:27Z</time>
      </trkpt>
      <trkpt lat="43.45504" lon="3.65223">
        <ele>37.200000762939</ele>
        <time>2020-02-05T08:28:34Z</time>
      </trkpt>
      <trkpt lat="43.45514" lon="3.65212">
        <ele>37.200000762939</ele>
        <time>2020-02-05T08:28:48Z</time>
      </trkpt>
      <trkpt lat="43.45521" lon="3.65207">
        <ele>35.200000762939</ele>
        <time>2020-02-05T08:28:57Z</time>
      </trkpt>
      <trkpt lat="43.45531" lon="3.65195">
        <ele>33.200000762939</ele>
        <time>2020-02-05T08:29:11Z</time>
      </trkpt>
      <trkpt lat="43.45537" lon="3.65187">
        <ele>34.200000762939</ele>
        <time>2020-02-05T08:29:20Z</time>
      </trkpt>
      <trkpt lat="43.4554" lon="3.65182">
        <ele>34.200000762939</ele>
        <time>2020-02-05T08:29:26Z</time>
      </trkpt>
      <trkpt lat="43.45543" lon="3.65179">
        <ele>34.200000762939</ele>
        <time>2020-02-05T08:29:30Z</time>
      </trkpt>
      <trkpt lat="43.45545" lon="3.65176">
        <ele>34.200000762939</ele>
        <time>2020-02-05T08:29:33Z</time>
      </trkpt>
      <trkpt lat="43.4555" lon="3.65169">
        <ele>36.200000762939</ele>
        <time>2020-02-05T08:29:41Z</time>
      </trkpt>
      <trkpt lat="43.4556" lon="3.65155">
        <ele>34.200000762939</ele>
        <time>2020-02-05T08:29:56Z</time>
      </trkpt>
      <trkpt lat="43.45574" lon="3.65139">
        <ele>35.200000762939</ele>
        <time>2020-02-05T08:30:14Z</time>
      </trkpt>
      <trkpt lat="43.45585" lon="3.65129">
        <ele>39.200000762939</ele>
        <time>2020-02-05T08:30:26Z</time>
      </trkpt>
      <trkpt lat="43.45588" lon="3.65127">
        <ele>40.200000762939</ele>
        <time>2020-02-05T08:30:30Z</time>
      </trkpt>
      <trkpt lat="43.45597" lon="3.65115">
        <ele>44.200000762939</ele>
        <time>2020-02-05T08:30:45Z</time>
      </trkpt>
      <trkpt lat="43.456" lon="3.65111">
        <ele>43.200000762939</ele>
        <time>2020-02-05T08:30:50Z</time>
      </trkpt>
      <trkpt lat="43.4561" lon="3.65101">
        <ele>45.200000762939</ele>
        <time>2020-02-05T08:31:01Z</time>
      </trkpt>
      <trkpt lat="43.45623" lon="3.65089">
        <ele>46.200000762939</ele>
        <time>2020-02-05T08:31:15Z</time>
      </trkpt>
      <trkpt lat="43.45633" lon="3.65078">
        <ele>46.200000762939</ele>
        <time>2020-02-05T08:31:29Z</time>
      </trkpt>
      <trkpt lat="43.45645" lon="3.65063">
        <ele>48.200000762939</ele>
        <time>2020-02-05T08:31:43Z</time>
      </trkpt>
      <trkpt lat="43.45655" lon="3.65051">
        <ele>50.200000762939</ele>
        <time>2020-02-05T08:31:55Z</time>
      </trkpt>
      <trkpt lat="43.45656" lon="3.65049">
        <ele>48.200000762939</ele>
        <time>2020-02-05T08:31:56Z</time>
      </trkpt>
      <trkpt lat="43.45661" lon="3.6504">
        <ele>51.200000762939</ele>
        <time>2020-02-05T08:32:04Z</time>
      </trkpt>
      <trkpt lat="43.45664" lon="3.65035">
        <ele>50.200000762939</ele>
        <time>2020-02-05T08:32:09Z</time>
      </trkpt>
      <trkpt lat="43.45672" lon="3.65025">
        <ele>52.200000762939</ele>
        <time>2020-02-05T08:32:19Z</time>
      </trkpt>
      <trkpt lat="43.45675" lon="3.65018">
        <ele>51.200000762939</ele>
        <time>2020-02-05T08:32:25Z</time>
      </trkpt>
      <trkpt lat="43.45677" lon="3.65015">
        <ele>51.200000762939</ele>
        <time>2020-02-05T08:32:28Z</time>
      </trkpt>
      <trkpt lat="43.45683" lon="3.65007">
        <ele>52.200000762939</ele>
        <time>2020-02-05T08:32:35Z</time>
      </trkpt>
      <trkpt lat="43.45687" lon="3.65003">
        <ele>52.200000762939</ele>
        <time>2020-02-05T08:32:41Z</time>
      </trkpt>
      <trkpt lat="43.4569" lon="3.65001">
        <ele>52.200000762939</ele>
        <time>2020-02-05T08:32:44Z</time>
      </trkpt>
      <trkpt lat="43.45704" lon="3.64982">
        <ele>51.200000762939</ele>
        <time>2020-02-05T08:33:06Z</time>
      </trkpt>
      <trkpt lat="43.45706" lon="3.64978">
        <ele>51.200000762939</ele>
        <time>2020-02-05T08:33:11Z</time>
      </trkpt>
      <trkpt lat="43.45707" lon="3.64976">
        <ele>50.200000762939</ele>
        <time>2020-02-05T08:33:13Z</time>
      </trkpt>
      <trkpt lat="43.45708" lon="3.64971">
        <ele>53.200000762939</ele>
        <time>2020-02-05T08:33:17Z</time>
      </trkpt>
      <trkpt lat="43.45709" lon="3.64969">
        <ele>53.200000762939</ele>
        <time>2020-02-05T08:33:19Z</time>
      </trkpt>
      <trkpt lat="43.45719" lon="3.64955">
        <ele>52.200000762939</ele>
        <time>2020-02-05T08:33:33Z</time>
      </trkpt>
      <trkpt lat="43.45721" lon="3.64954">
        <ele>52.200000762939</ele>
        <time>2020-02-05T08:33:35Z</time>
      </trkpt>
      <trkpt lat="43.45723" lon="3.64953">
        <ele>52.200000762939</ele>
        <time>2020-02-05T08:33:37Z</time>
      </trkpt>
      <trkpt lat="43.45726" lon="3.64953">
        <ele>52.200000762939</ele>
        <time>2020-02-05T08:33:40Z</time>
      </trkpt>
      <trkpt lat="43.45731" lon="3.64952">
        <ele>51.200000762939</ele>
        <time>2020-02-05T08:33:44Z</time>
      </trkpt>
      <trkpt lat="43.45733" lon="3.6495">
        <ele>51.200000762939</ele>
        <time>2020-02-05T08:33:47Z</time>
      </trkpt>
      <trkpt lat="43.45735" lon="3.64949">
        <ele>51.200000762939</ele>
        <time>2020-02-05T08:33:48Z</time>
      </trkpt>
      <trkpt lat="43.45735" lon="3.64949">
        <ele>51.200000762939</ele>
        <time>2020-02-05T08:33:49Z</time>
      </trkpt>
      <trkpt lat="43.45736" lon="3.64947">
        <ele>51.200000762939</ele>
        <time>2020-02-05T08:33:50Z</time>
      </trkpt>
      <trkpt lat="43.45737" lon="3.64944">
        <ele>51.200000762939</ele>
        <time>2020-02-05T08:33:51Z</time>
      </trkpt>
      <trkpt lat="43.45738" lon="3.64942">
        <ele>51.200000762939</ele>
        <time>2020-02-05T08:33:53Z</time>
      </trkpt>
      <trkpt lat="43.45741" lon="3.64936">
        <ele>51.200000762939</ele>
        <time>2020-02-05T08:33:56Z</time>
      </trkpt>
      <trkpt lat="43.45745" lon="3.64928">
        <ele>52.200000762939</ele>
        <time>2020-02-05T08:34:01Z</time>
      </trkpt>
      <trkpt lat="43.45751" lon="3.64922">
        <ele>53.200000762939</ele>
        <time>2020-02-05T08:34:07Z</time>
      </trkpt>
      <trkpt lat="43.45753" lon="3.64918">
        <ele>53.200000762939</ele>
        <time>2020-02-05T08:34:10Z</time>
      </trkpt>
      <trkpt lat="43.45758" lon="3.64914">
        <ele>54.200000762939</ele>
        <time>2020-02-05T08:34:15Z</time>
      </trkpt>
      <trkpt lat="43.45767" lon="3.64901">
        <ele>54.200000762939</ele>
        <time>2020-02-05T08:34:27Z</time>
      </trkpt>
      <trkpt lat="43.45769" lon="3.64897">
        <ele>53.200000762939</ele>
        <time>2020-02-05T08:34:30Z</time>
      </trkpt>
      <trkpt lat="43.45772" lon="3.64894">
        <ele>53.200000762939</ele>
        <time>2020-02-05T08:34:34Z</time>
      </trkpt>
      <trkpt lat="43.4578" lon="3.64884">
        <ele>51.200000762939</ele>
        <time>2020-02-05T08:34:43Z</time>
      </trkpt>
      <trkpt lat="43.45791" lon="3.6487">
        <ele>52.200000762939</ele>
        <time>2020-02-05T08:34:56Z</time>
      </trkpt>
      <trkpt lat="43.45793" lon="3.64868">
        <ele>51.200000762939</ele>
        <time>2020-02-05T08:34:58Z</time>
      </trkpt>
      <trkpt lat="43.45794" lon="3.64864">
        <ele>51.200000762939</ele>
        <time>2020-02-05T08:35:00Z</time>
      </trkpt>
      <trkpt lat="43.45794" lon="3.6486">
        <ele>51.200000762939</ele>
        <time>2020-02-05T08:35:02Z</time>
      </trkpt>
      <trkpt lat="43.45792" lon="3.64854">
        <ele>51.200000762939</ele>
        <time>2020-02-05T08:35:05Z</time>
      </trkpt>
      <trkpt lat="43.45792" lon="3.64852">
        <ele>51.200000762939</ele>
        <time>2020-02-05T08:35:07Z</time>
      </trkpt>
      <trkpt lat="43.45793" lon="3.64844">
        <ele>50.200000762939</ele>
        <time>2020-02-05T08:35:14Z</time>
      </trkpt>
      <trkpt lat="43.45794" lon="3.64839">
        <ele>50.200000762939</ele>
        <time>2020-02-05T08:35:19Z</time>
      </trkpt>
      <trkpt lat="43.45798" lon="3.64832">
        <ele>49.200000762939</ele>
        <time>2020-02-05T08:35:26Z</time>
      </trkpt>
      <trkpt lat="43.45806" lon="3.64833">
        <ele>49.200000762939</ele>
        <time>2020-02-05T08:35:30Z</time>
      </trkpt>
      <trkpt lat="43.45808" lon="3.64833">
        <ele>49.200000762939</ele>
        <time>2020-02-05T08:35:31Z</time>
      </trkpt>
      <trkpt lat="43.45812" lon="3.64831">
        <ele>49.200000762939</ele>
        <time>2020-02-05T08:35:34Z</time>
      </trkpt>
      <trkpt lat="43.45817" lon="3.64828">
        <ele>49.200000762939</ele>
        <time>2020-02-05T08:35:39Z</time>
      </trkpt>
      <trkpt lat="43.45818" lon="3.64827">
        <ele>49.200000762939</ele>
        <time>2020-02-05T08:35:40Z</time>
      </trkpt>
      <trkpt lat="43.45822" lon="3.64821">
        <ele>50.200000762939</ele>
        <time>2020-02-05T08:35:46Z</time>
      </trkpt>
      <trkpt lat="43.45825" lon="3.64813">
        <ele>49.200000762939</ele>
        <time>2020-02-05T08:35:53Z</time>
      </trkpt>
      <trkpt lat="43.4583" lon="3.64806">
        <ele>47.200000762939</ele>
        <time>2020-02-05T08:35:58Z</time>
      </trkpt>
      <trkpt lat="43.45833" lon="3.64797">
        <ele>47.200000762939</ele>
        <time>2020-02-05T08:36:05Z</time>
      </trkpt>
      <trkpt lat="43.45833" lon="3.64797">
        <ele>48.200000762939</ele>
        <time>2020-02-05T08:36:07Z</time>
      </trkpt>
      <trkpt lat="43.45834" lon="3.64796">
        <ele>52.200000762939</ele>
        <time>2020-02-05T08:36:08Z</time>
      </trkpt>
      <trkpt lat="43.45835" lon="3.64794">
        <ele>55.200000762939</ele>
        <time>2020-02-05T08:36:11Z</time>
      </trkpt>
      <trkpt lat="43.45844" lon="3.64787">
        <ele>56.200000762939</ele>
        <time>2020-02-05T08:36:25Z</time>
      </trkpt>
      <trkpt lat="43.45846" lon="3.64786">
        <ele>57.200000762939</ele>
        <time>2020-02-05T08:36:27Z</time>
      </trkpt>
      <trkpt lat="43.45848" lon="3.64784">
        <ele>56.200000762939</ele>
        <time>2020-02-05T08:36:29Z</time>
      </trkpt>
      <trkpt lat="43.45851" lon="3.64778">
        <ele>57.200000762939</ele>
        <time>2020-02-05T08:36:33Z</time>
      </trkpt>
      <trkpt lat="43.45852" lon="3.64774">
        <ele>58.200000762939</ele>
        <time>2020-02-05T08:36:37Z</time>
      </trkpt>
      <trkpt lat="43.45853" lon="3.64771">
        <ele>58.200000762939</ele>
        <time>2020-02-05T08:36:39Z</time>
      </trkpt>
      <trkpt lat="43.45852" lon="3.64751">
        <ele>57.200000762939</ele>
        <time>2020-02-05T08:36:54Z</time>
      </trkpt>
      <trkpt lat="43.45852" lon="3.64739">
        <ele>56.200000762939</ele>
        <time>2020-02-05T08:37:03Z</time>
      </trkpt>
      <trkpt lat="43.45853" lon="3.64736">
        <ele>56.200000762939</ele>
        <time>2020-02-05T08:37:05Z</time>
      </trkpt>
      <trkpt lat="43.45855" lon="3.64732">
        <ele>56.200000762939</ele>
        <time>2020-02-05T08:37:09Z</time>
      </trkpt>
      <trkpt lat="43.45861" lon="3.64722">
        <ele>56.200000762939</ele>
        <time>2020-02-05T08:37:17Z</time>
      </trkpt>
      <trkpt lat="43.45863" lon="3.64718">
        <ele>54.200000762939</ele>
        <time>2020-02-05T08:37:21Z</time>
      </trkpt>
      <trkpt lat="43.45866" lon="3.64715">
        <ele>54.200000762939</ele>
        <time>2020-02-05T08:37:24Z</time>
      </trkpt>
      <trkpt lat="43.45871" lon="3.6471">
        <ele>55.200000762939</ele>
        <time>2020-02-05T08:37:29Z</time>
      </trkpt>
      <trkpt lat="43.45876" lon="3.64706">
        <ele>54.200000762939</ele>
        <time>2020-02-05T08:37:34Z</time>
      </trkpt>
      <trkpt lat="43.45881" lon="3.64704">
        <ele>54.200000762939</ele>
        <time>2020-02-05T08:37:39Z</time>
      </trkpt>
      <trkpt lat="43.45885" lon="3.64701">
        <ele>54.200000762939</ele>
        <time>2020-02-05T08:37:44Z</time>
      </trkpt>
      <trkpt lat="43.45888" lon="3.64698">
        <ele>54.200000762939</ele>
        <time>2020-02-05T08:37:47Z</time>
      </trkpt>
      <trkpt lat="43.4589" lon="3.64696">
        <ele>53.200000762939</ele>
        <time>2020-02-05T08:37:49Z</time>
      </trkpt>
      <trkpt lat="43.45895" lon="3.64685">
        <ele>51.200000762939</ele>
        <time>2020-02-05T08:37:58Z</time>
      </trkpt>
      <trkpt lat="43.45898" lon="3.64681">
        <ele>52.200000762939</ele>
        <time>2020-02-05T08:38:02Z</time>
      </trkpt>
      <trkpt lat="43.459" lon="3.64676">
        <ele>52.200000762939</ele>
        <time>2020-02-05T08:38:07Z</time>
      </trkpt>
      <trkpt lat="43.45901" lon="3.64674">
        <ele>52.200000762939</ele>
        <time>2020-02-05T08:38:10Z</time>
      </trkpt>
      <trkpt lat="43.45901" lon="3.64671">
        <ele>52.200000762939</ele>
        <time>2020-02-05T08:38:13Z</time>
      </trkpt>
      <trkpt lat="43.45901" lon="3.64666">
        <ele>53.200000762939</ele>
        <time>2020-02-05T08:38:19Z</time>
      </trkpt>
      <trkpt lat="43.45903" lon="3.64665">
        <ele>52.200000762939</ele>
        <time>2020-02-05T08:38:21Z</time>
      </trkpt>
      <trkpt lat="43.45907" lon="3.64661">
        <ele>52.200000762939</ele>
        <time>2020-02-05T08:38:28Z</time>
      </trkpt>
      <trkpt lat="43.45908" lon="3.64659">
        <ele>54.200000762939</ele>
        <time>2020-02-05T08:38:31Z</time>
      </trkpt>
      <trkpt lat="43.45907" lon="3.64646">
        <ele>54.200000762939</ele>
        <time>2020-02-05T08:38:41Z</time>
      </trkpt>
      <trkpt lat="43.45908" lon="3.6464">
        <ele>54.200000762939</ele>
        <time>2020-02-05T08:38:45Z</time>
      </trkpt>
      <trkpt lat="43.45907" lon="3.6463">
        <ele>54.200000762939</ele>
        <time>2020-02-05T08:38:53Z</time>
      </trkpt>
      <trkpt lat="43.45906" lon="3.64625">
        <ele>53.200000762939</ele>
        <time>2020-02-05T08:38:57Z</time>
      </trkpt>
      <trkpt lat="43.45905" lon="3.64619">
        <ele>57.200000762939</ele>
        <time>2020-02-05T08:39:02Z</time>
      </trkpt>
      <trkpt lat="43.45903" lon="3.64615">
        <ele>60.200000762939</ele>
        <time>2020-02-05T08:39:05Z</time>
      </trkpt>
      <trkpt lat="43.45902" lon="3.64612">
        <ele>61.200000762939</ele>
        <time>2020-02-05T08:39:09Z</time>
      </trkpt>
      <trkpt lat="43.45901" lon="3.64608">
        <ele>60.200000762939</ele>
        <time>2020-02-05T08:39:12Z</time>
      </trkpt>
      <trkpt lat="43.45902" lon="3.64606">
        <ele>61.200000762939</ele>
        <time>2020-02-05T08:39:14Z</time>
      </trkpt>
      <trkpt lat="43.45902" lon="3.64602">
        <ele>61.200000762939</ele>
        <time>2020-02-05T08:39:17Z</time>
      </trkpt>
      <trkpt lat="43.45908" lon="3.64593">
        <ele>62.200000762939</ele>
        <time>2020-02-05T08:39:27Z</time>
      </trkpt>
      <trkpt lat="43.45909" lon="3.64591">
        <ele>62.200000762939</ele>
        <time>2020-02-05T08:39:30Z</time>
      </trkpt>
      <trkpt lat="43.45913" lon="3.64578">
        <ele>63.200000762939</ele>
        <time>2020-02-05T08:39:41Z</time>
      </trkpt>
      <trkpt lat="43.45913" lon="3.64576">
        <ele>62.200000762939</ele>
        <time>2020-02-05T08:39:43Z</time>
      </trkpt>
      <trkpt lat="43.45914" lon="3.64555">
        <ele>62.200000762939</ele>
        <time>2020-02-05T08:40:00Z</time>
      </trkpt>
      <trkpt lat="43.45915" lon="3.64542">
        <ele>61.200000762939</ele>
        <time>2020-02-05T08:40:11Z</time>
      </trkpt>
      <trkpt lat="43.45915" lon="3.64539">
        <ele>62.200000762939</ele>
        <time>2020-02-05T08:40:13Z</time>
      </trkpt>
      <trkpt lat="43.45917" lon="3.64536">
        <ele>62.200000762939</ele>
        <time>2020-02-05T08:40:16Z</time>
      </trkpt>
      <trkpt lat="43.45925" lon="3.64523">
        <ele>62.200000762939</ele>
        <time>2020-02-05T08:40:28Z</time>
      </trkpt>
      <trkpt lat="43.45926" lon="3.64521">
        <ele>62.200000762939</ele>
        <time>2020-02-05T08:40:31Z</time>
      </trkpt>
      <trkpt lat="43.45928" lon="3.64514">
        <ele>61.200000762939</ele>
        <time>2020-02-05T08:40:36Z</time>
      </trkpt>
      <trkpt lat="43.45929" lon="3.645">
        <ele>63.200000762939</ele>
        <time>2020-02-05T08:40:48Z</time>
      </trkpt>
      <trkpt lat="43.45929" lon="3.64492">
        <ele>61.200000762939</ele>
        <time>2020-02-05T08:40:54Z</time>
      </trkpt>
      <trkpt lat="43.4593" lon="3.64483">
        <ele>62.200000762939</ele>
        <time>2020-02-05T08:41:01Z</time>
      </trkpt>
      <trkpt lat="43.45932" lon="3.64477">
        <ele>63.200000762939</ele>
        <time>2020-02-05T08:41:06Z</time>
      </trkpt>
      <trkpt lat="43.45933" lon="3.64474">
        <ele>63.200000762939</ele>
        <time>2020-02-05T08:41:09Z</time>
      </trkpt>
      <trkpt lat="43.45935" lon="3.64473">
        <ele>63.200000762939</ele>
        <time>2020-02-05T08:41:11Z</time>
      </trkpt>
      <trkpt lat="43.45937" lon="3.64471">
        <ele>63.200000762939</ele>
        <time>2020-02-05T08:41:13Z</time>
      </trkpt>
      <trkpt lat="43.45952" lon="3.64465">
        <ele>64.199996948242</ele>
        <time>2020-02-05T08:41:28Z</time>
      </trkpt>
      <trkpt lat="43.4597" lon="3.64459">
        <ele>65.199996948242</ele>
        <time>2020-02-05T08:41:49Z</time>
      </trkpt>
      <trkpt lat="43.45974" lon="3.64458">
        <ele>66.199996948242</ele>
        <time>2020-02-05T08:41:53Z</time>
      </trkpt>
      <trkpt lat="43.45976" lon="3.64457">
        <ele>65.199996948242</ele>
        <time>2020-02-05T08:41:56Z</time>
      </trkpt>
      <trkpt lat="43.45978" lon="3.64455">
        <ele>65.199996948242</ele>
        <time>2020-02-05T08:41:58Z</time>
      </trkpt>
      <trkpt lat="43.45983" lon="3.64451">
        <ele>65.199996948242</ele>
        <time>2020-02-05T08:42:03Z</time>
      </trkpt>
      <trkpt lat="43.45984" lon="3.64448">
        <ele>65.199996948242</ele>
        <time>2020-02-05T08:42:05Z</time>
      </trkpt>
      <trkpt lat="43.45993" lon="3.64428">
        <ele>65.199996948242</ele>
        <time>2020-02-05T08:42:22Z</time>
      </trkpt>
      <trkpt lat="43.45997" lon="3.6442">
        <ele>64.199996948242</ele>
        <time>2020-02-05T08:42:31Z</time>
      </trkpt>
      <trkpt lat="43.46006" lon="3.64397">
        <ele>68.199996948242</ele>
        <time>2020-02-05T08:42:51Z</time>
      </trkpt>
      <trkpt lat="43.46014" lon="3.64382">
        <ele>67.199996948242</ele>
        <time>2020-02-05T08:43:06Z</time>
      </trkpt>
      <trkpt lat="43.46016" lon="3.64379">
        <ele>68.199996948242</ele>
        <time>2020-02-05T08:43:09Z</time>
      </trkpt>
      <trkpt lat="43.46032" lon="3.64364">
        <ele>70.199996948242</ele>
        <time>2020-02-05T08:43:30Z</time>
      </trkpt>
      <trkpt lat="43.46042" lon="3.64358">
        <ele>69.199996948242</ele>
        <time>2020-02-05T08:43:42Z</time>
      </trkpt>
      <trkpt lat="43.46051" lon="3.64351">
        <ele>69.199996948242</ele>
        <time>2020-02-05T08:43:53Z</time>
      </trkpt>
      <trkpt lat="43.46053" lon="3.64349">
        <ele>69.199996948242</ele>
        <time>2020-02-05T08:43:55Z</time>
      </trkpt>
      <trkpt lat="43.46055" lon="3.64347">
        <ele>69.199996948242</ele>
        <time>2020-02-05T08:43:56Z</time>
      </trkpt>
      <trkpt lat="43.46063" lon="3.64342">
        <ele>69.199996948242</ele>
        <time>2020-02-05T08:44:03Z</time>
      </trkpt>
      <trkpt lat="43.46068" lon="3.64338">
        <ele>68.199996948242</ele>
        <time>2020-02-05T08:44:10Z</time>
      </trkpt>
      <trkpt lat="43.46076" lon="3.64334">
        <ele>69.199996948242</ele>
        <time>2020-02-05T08:44:19Z</time>
      </trkpt>
      <trkpt lat="43.46081" lon="3.64331">
        <ele>69.199996948242</ele>
        <time>2020-02-05T08:44:25Z</time>
      </trkpt>
      <trkpt lat="43.46083" lon="3.64328">
        <ele>69.199996948242</ele>
        <time>2020-02-05T08:44:30Z</time>
      </trkpt>
      <trkpt lat="43.46087" lon="3.64323">
        <ele>69.199996948242</ele>
        <time>2020-02-05T08:44:36Z</time>
      </trkpt>
      <trkpt lat="43.46088" lon="3.6432">
        <ele>69.199996948242</ele>
        <time>2020-02-05T08:44:38Z</time>
      </trkpt>
      <trkpt lat="43.46088" lon="3.64318">
        <ele>69.199996948242</ele>
        <time>2020-02-05T08:44:39Z</time>
      </trkpt>
      <trkpt lat="43.46088" lon="3.64315">
        <ele>69.199996948242</ele>
        <time>2020-02-05T08:44:41Z</time>
      </trkpt>
      <trkpt lat="43.46087" lon="3.64312">
        <ele>68.199996948242</ele>
        <time>2020-02-05T08:44:45Z</time>
      </trkpt>
      <trkpt lat="43.46087" lon="3.64308">
        <ele>68.199996948242</ele>
        <time>2020-02-05T08:44:48Z</time>
      </trkpt>
      <trkpt lat="43.46085" lon="3.64306">
        <ele>67.199996948242</ele>
        <time>2020-02-05T08:44:52Z</time>
      </trkpt>
      <trkpt lat="43.4608" lon="3.64302">
        <ele>66.199996948242</ele>
        <time>2020-02-05T08:44:59Z</time>
      </trkpt>
      <trkpt lat="43.46077" lon="3.643">
        <ele>65.199996948242</ele>
        <time>2020-02-05T08:45:04Z</time>
      </trkpt>
      <trkpt lat="43.46072" lon="3.64294">
        <ele>65.199996948242</ele>
        <time>2020-02-05T08:45:11Z</time>
      </trkpt>
      <trkpt lat="43.46062" lon="3.64284">
        <ele>64.199996948242</ele>
        <time>2020-02-05T08:45:26Z</time>
      </trkpt>
      <trkpt lat="43.4606" lon="3.6428">
        <ele>64.199996948242</ele>
        <time>2020-02-05T08:45:29Z</time>
      </trkpt>
      <trkpt lat="43.4606" lon="3.64278">
        <ele>63.200000762939</ele>
        <time>2020-02-05T08:45:31Z</time>
      </trkpt>
      <trkpt lat="43.46059" lon="3.64273">
        <ele>63.200000762939</ele>
        <time>2020-02-05T08:45:35Z</time>
      </trkpt>
      <trkpt lat="43.4606" lon="3.64267">
        <ele>63.200000762939</ele>
        <time>2020-02-05T08:45:40Z</time>
      </trkpt>
      <trkpt lat="43.4606" lon="3.64264">
        <ele>64.199996948242</ele>
        <time>2020-02-05T08:45:43Z</time>
      </trkpt>
      <trkpt lat="43.46057" lon="3.64255">
        <ele>68.199996948242</ele>
        <time>2020-02-05T08:45:51Z</time>
      </trkpt>
      <trkpt lat="43.46054" lon="3.64243">
        <ele>70.199996948242</ele>
        <time>2020-02-05T08:45:59Z</time>
      </trkpt>
      <trkpt lat="43.46052" lon="3.64238">
        <ele>69.199996948242</ele>
        <time>2020-02-05T08:46:04Z</time>
      </trkpt>
      <trkpt lat="43.46052" lon="3.6423">
        <ele>69.199996948242</ele>
        <time>2020-02-05T08:46:10Z</time>
      </trkpt>
      <trkpt lat="43.46053" lon="3.64227">
        <ele>69.199996948242</ele>
        <time>2020-02-05T08:46:21Z</time>
      </trkpt>
      <trkpt lat="43.46054" lon="3.64222">
        <ele>68.199996948242</ele>
        <time>2020-02-05T08:46:26Z</time>
      </trkpt>
      <trkpt lat="43.46053" lon="3.6422">
        <ele>69.199996948242</ele>
        <time>2020-02-05T08:46:29Z</time>
      </trkpt>
      <trkpt lat="43.4605" lon="3.64204">
        <ele>68.199996948242</ele>
        <time>2020-02-05T08:46:43Z</time>
      </trkpt>
      <trkpt lat="43.4605" lon="3.64201">
        <ele>67.199996948242</ele>
        <time>2020-02-05T08:46:46Z</time>
      </trkpt>
      <trkpt lat="43.4605" lon="3.64198">
        <ele>67.199996948242</ele>
        <time>2020-02-05T08:46:48Z</time>
      </trkpt>
      <trkpt lat="43.46054" lon="3.64185">
        <ele>68.199996948242</ele>
        <time>2020-02-05T08:47:01Z</time>
      </trkpt>
      <trkpt lat="43.46054" lon="3.64182">
        <ele>68.199996948242</ele>
        <time>2020-02-05T08:47:04Z</time>
      </trkpt>
      <trkpt lat="43.46053" lon="3.64165">
        <ele>67.199996948242</ele>
        <time>2020-02-05T08:47:20Z</time>
      </trkpt>
      <trkpt lat="43.46052" lon="3.64165">
        <ele>65.199996948242</ele>
        <time>2020-02-05T08:48:17Z</time>
      </trkpt>
      <trkpt lat="43.46053" lon="3.64161">
        <ele>69.199996948242</ele>
        <time>2020-02-05T08:49:10Z</time>
      </trkpt>
      <trkpt lat="43.46053" lon="3.64159">
        <ele>69.199996948242</ele>
        <time>2020-02-05T08:49:14Z</time>
      </trkpt>
      <trkpt lat="43.46052" lon="3.64154">
        <ele>69.199996948242</ele>
        <time>2020-02-05T08:49:21Z</time>
      </trkpt>
      <trkpt lat="43.46052" lon="3.64151">
        <ele>68.199996948242</ele>
        <time>2020-02-05T08:49:22Z</time>
      </trkpt>
      <trkpt lat="43.46056" lon="3.64144">
        <ele>69.199996948242</ele>
        <time>2020-02-05T08:49:28Z</time>
      </trkpt>
      <trkpt lat="43.46057" lon="3.6414">
        <ele>67.199996948242</ele>
        <time>2020-02-05T08:49:34Z</time>
      </trkpt>
      <trkpt lat="43.46057" lon="3.64137">
        <ele>67.199996948242</ele>
        <time>2020-02-05T08:49:38Z</time>
      </trkpt>
      <trkpt lat="43.46057" lon="3.64136">
        <ele>68.199996948242</ele>
        <time>2020-02-05T08:49:39Z</time>
      </trkpt>
      <trkpt lat="43.46056" lon="3.6413">
        <ele>69.199996948242</ele>
        <time>2020-02-05T08:49:46Z</time>
      </trkpt>
      <trkpt lat="43.46056" lon="3.64128">
        <ele>69.199996948242</ele>
        <time>2020-02-05T08:49:48Z</time>
      </trkpt>
      <trkpt lat="43.46055" lon="3.64126">
        <ele>65.199996948242</ele>
        <time>2020-02-05T08:49:50Z</time>
      </trkpt>
      <trkpt lat="43.4605" lon="3.64117">
        <ele>67.199996948242</ele>
        <time>2020-02-05T08:49:58Z</time>
      </trkpt>
      <trkpt lat="43.46047" lon="3.64113">
        <ele>66.199996948242</ele>
        <time>2020-02-05T08:50:03Z</time>
      </trkpt>
      <trkpt lat="43.46047" lon="3.6411">
        <ele>67.199996948242</ele>
        <time>2020-02-05T08:50:06Z</time>
      </trkpt>
      <trkpt lat="43.46048" lon="3.64105">
        <ele>67.199996948242</ele>
        <time>2020-02-05T08:50:13Z</time>
      </trkpt>
      <trkpt lat="43.46049" lon="3.64103">
        <ele>66.199996948242</ele>
        <time>2020-02-05T08:50:15Z</time>
      </trkpt>
      <trkpt lat="43.46053" lon="3.64098">
        <ele>67.199996948242</ele>
        <time>2020-02-05T08:50:22Z</time>
      </trkpt>
      <trkpt lat="43.46054" lon="3.64095">
        <ele>67.199996948242</ele>
        <time>2020-02-05T08:50:25Z</time>
      </trkpt>
      <trkpt lat="43.46055" lon="3.6409">
        <ele>67.199996948242</ele>
        <time>2020-02-05T08:50:30Z</time>
      </trkpt>
      <trkpt lat="43.46056" lon="3.64087">
        <ele>67.199996948242</ele>
        <time>2020-02-05T08:50:35Z</time>
      </trkpt>
      <trkpt lat="43.46062" lon="3.64079">
        <ele>67.199996948242</ele>
        <time>2020-02-05T08:50:47Z</time>
      </trkpt>
      <trkpt lat="43.46071" lon="3.64063">
        <ele>66.199996948242</ele>
        <time>2020-02-05T08:51:11Z</time>
      </trkpt>
      <trkpt lat="43.46074" lon="3.64059">
        <ele>66.199996948242</ele>
        <time>2020-02-05T08:51:18Z</time>
      </trkpt>
      <trkpt lat="43.46075" lon="3.64057">
        <ele>67.199996948242</ele>
        <time>2020-02-05T08:51:21Z</time>
      </trkpt>
      <trkpt lat="43.46076" lon="3.64054">
        <ele>67.199996948242</ele>
        <time>2020-02-05T08:51:25Z</time>
      </trkpt>
      <trkpt lat="43.4608" lon="3.64044">
        <ele>69.199996948242</ele>
        <time>2020-02-05T08:51:35Z</time>
      </trkpt>
      <trkpt lat="43.46086" lon="3.64038">
        <ele>69.199996948242</ele>
        <time>2020-02-05T08:51:45Z</time>
      </trkpt>
      <trkpt lat="43.46088" lon="3.64037">
        <ele>68.199996948242</ele>
        <time>2020-02-05T08:51:49Z</time>
      </trkpt>
      <trkpt lat="43.46101" lon="3.64035">
        <ele>66.199996948242</ele>
        <time>2020-02-05T08:52:05Z</time>
      </trkpt>
      <trkpt lat="43.46107" lon="3.64036">
        <ele>65.199996948242</ele>
        <time>2020-02-05T08:52:11Z</time>
      </trkpt>
      <trkpt lat="43.46117" lon="3.64038">
        <ele>65.199996948242</ele>
        <time>2020-02-05T08:52:22Z</time>
      </trkpt>
      <trkpt lat="43.46123" lon="3.64037">
        <ele>63.200000762939</ele>
        <time>2020-02-05T08:52:29Z</time>
      </trkpt>
      <trkpt lat="43.46132" lon="3.64035">
        <ele>64.199996948242</ele>
        <time>2020-02-05T08:52:37Z</time>
      </trkpt>
      <trkpt lat="43.46138" lon="3.64035">
        <ele>64.199996948242</ele>
        <time>2020-02-05T08:52:44Z</time>
      </trkpt>
      <trkpt lat="43.46143" lon="3.64034">
        <ele>65.199996948242</ele>
        <time>2020-02-05T08:52:48Z</time>
      </trkpt>
      <trkpt lat="43.46147" lon="3.64033">
        <ele>65.199996948242</ele>
        <time>2020-02-05T08:52:52Z</time>
      </trkpt>
      <trkpt lat="43.46151" lon="3.6403">
        <ele>64.199996948242</ele>
        <time>2020-02-05T08:52:57Z</time>
      </trkpt>
      <trkpt lat="43.46166" lon="3.64016">
        <ele>65.199996948242</ele>
        <time>2020-02-05T08:53:14Z</time>
      </trkpt>
      <trkpt lat="43.46169" lon="3.64013">
        <ele>64.199996948242</ele>
        <time>2020-02-05T08:53:17Z</time>
      </trkpt>
      <trkpt lat="43.46172" lon="3.64006">
        <ele>66.199996948242</ele>
        <time>2020-02-05T08:53:24Z</time>
      </trkpt>
      <trkpt lat="43.46175" lon="3.64">
        <ele>66.199996948242</ele>
        <time>2020-02-05T08:53:29Z</time>
      </trkpt>
      <trkpt lat="43.46177" lon="3.63998">
        <ele>66.199996948242</ele>
        <time>2020-02-05T08:53:31Z</time>
      </trkpt>
      <trkpt lat="43.4618" lon="3.63997">
        <ele>65.199996948242</ele>
        <time>2020-02-05T08:53:34Z</time>
      </trkpt>
      <trkpt lat="43.46194" lon="3.63989">
        <ele>66.199996948242</ele>
        <time>2020-02-05T08:53:47Z</time>
      </trkpt>
      <trkpt lat="43.46198" lon="3.63989">
        <ele>66.199996948242</ele>
        <time>2020-02-05T08:53:50Z</time>
      </trkpt>
      <trkpt lat="43.462" lon="3.63988">
        <ele>65.199996948242</ele>
        <time>2020-02-05T08:53:52Z</time>
      </trkpt>
      <trkpt lat="43.46202" lon="3.63987">
        <ele>64.199996948242</ele>
        <time>2020-02-05T08:53:56Z</time>
      </trkpt>
      <trkpt lat="43.46203" lon="3.63984">
        <ele>63.200000762939</ele>
        <time>2020-02-05T08:53:58Z</time>
      </trkpt>
      <trkpt lat="43.46205" lon="3.63981">
        <ele>64.199996948242</ele>
        <time>2020-02-05T08:54:02Z</time>
      </trkpt>
      <trkpt lat="43.46206" lon="3.63978">
        <ele>65.199996948242</ele>
        <time>2020-02-05T08:54:05Z</time>
      </trkpt>
      <trkpt lat="43.46209" lon="3.63975">
        <ele>66.199996948242</ele>
        <time>2020-02-05T08:54:09Z</time>
      </trkpt>
      <trkpt lat="43.46213" lon="3.6397">
        <ele>67.199996948242</ele>
        <time>2020-02-05T08:54:15Z</time>
      </trkpt>
      <trkpt lat="43.46215" lon="3.63964">
        <ele>67.199996948242</ele>
        <time>2020-02-05T08:54:20Z</time>
      </trkpt>
      <trkpt lat="43.46219" lon="3.63957">
        <ele>67.199996948242</ele>
        <time>2020-02-05T08:54:26Z</time>
      </trkpt>
      <trkpt lat="43.46223" lon="3.63947">
        <ele>67.199996948242</ele>
        <time>2020-02-05T08:54:35Z</time>
      </trkpt>
      <trkpt lat="43.46234" lon="3.63933">
        <ele>67.199996948242</ele>
        <time>2020-02-05T08:54:52Z</time>
      </trkpt>
      <trkpt lat="43.46242" lon="3.63922">
        <ele>69.199996948242</ele>
        <time>2020-02-05T08:55:03Z</time>
      </trkpt>
      <trkpt lat="43.46245" lon="3.63915">
        <ele>68.199996948242</ele>
        <time>2020-02-05T08:55:10Z</time>
      </trkpt>
      <trkpt lat="43.46247" lon="3.63909">
        <ele>68.199996948242</ele>
        <time>2020-02-05T08:55:16Z</time>
      </trkpt>
      <trkpt lat="43.4625" lon="3.63905">
        <ele>67.199996948242</ele>
        <time>2020-02-05T08:55:21Z</time>
      </trkpt>
      <trkpt lat="43.46252" lon="3.63903">
        <ele>66.199996948242</ele>
        <time>2020-02-05T08:55:23Z</time>
      </trkpt>
      <trkpt lat="43.46259" lon="3.63899">
        <ele>67.199996948242</ele>
        <time>2020-02-05T08:55:30Z</time>
      </trkpt>
      <trkpt lat="43.46261" lon="3.63898">
        <ele>67.199996948242</ele>
        <time>2020-02-05T08:55:32Z</time>
      </trkpt>
      <trkpt lat="43.46263" lon="3.63896">
        <ele>68.199996948242</ele>
        <time>2020-02-05T08:55:35Z</time>
      </trkpt>
      <trkpt lat="43.4627" lon="3.63879">
        <ele>68.199996948242</ele>
        <time>2020-02-05T08:55:49Z</time>
      </trkpt>
      <trkpt lat="43.46276" lon="3.63862">
        <ele>70.199996948242</ele>
        <time>2020-02-05T08:56:02Z</time>
      </trkpt>
      <trkpt lat="43.46282" lon="3.63849">
        <ele>71.199996948242</ele>
        <time>2020-02-05T08:56:16Z</time>
      </trkpt>
      <trkpt lat="43.46291" lon="3.63832">
        <ele>70.199996948242</ele>
        <time>2020-02-05T08:56:33Z</time>
      </trkpt>
      <trkpt lat="43.46299" lon="3.63811">
        <ele>69.199996948242</ele>
        <time>2020-02-05T08:56:51Z</time>
      </trkpt>
      <trkpt lat="43.46304" lon="3.63796">
        <ele>69.199996948242</ele>
        <time>2020-02-05T08:57:02Z</time>
      </trkpt>
      <trkpt lat="43.46304" lon="3.63793">
        <ele>70.199996948242</ele>
        <time>2020-02-05T08:57:05Z</time>
      </trkpt>
      <trkpt lat="43.46306" lon="3.6379">
        <ele>70.199996948242</ele>
        <time>2020-02-05T08:57:07Z</time>
      </trkpt>
      <trkpt lat="43.46308" lon="3.63787">
        <ele>71.199996948242</ele>
        <time>2020-02-05T08:57:10Z</time>
      </trkpt>
      <trkpt lat="43.4632" lon="3.63774">
        <ele>69.199996948242</ele>
        <time>2020-02-05T08:57:27Z</time>
      </trkpt>
      <trkpt lat="43.46324" lon="3.6377">
        <ele>68.199996948242</ele>
        <time>2020-02-05T08:57:33Z</time>
      </trkpt>
      <trkpt lat="43.46325" lon="3.63769">
        <ele>67.199996948242</ele>
        <time>2020-02-05T08:57:35Z</time>
      </trkpt>
      <trkpt lat="43.46327" lon="3.63766">
        <ele>68.199996948242</ele>
        <time>2020-02-05T08:57:37Z</time>
      </trkpt>
      <trkpt lat="43.46333" lon="3.63752">
        <ele>70.199996948242</ele>
        <time>2020-02-05T08:57:50Z</time>
      </trkpt>
      <trkpt lat="43.46344" lon="3.63737">
        <ele>72.199996948242</ele>
        <time>2020-02-05T08:58:05Z</time>
      </trkpt>
      <trkpt lat="43.46355" lon="3.63723">
        <ele>72.199996948242</ele>
        <time>2020-02-05T08:58:22Z</time>
      </trkpt>
      <trkpt lat="43.46361" lon="3.63713">
        <ele>71.199996948242</ele>
        <time>2020-02-05T08:58:32Z</time>
      </trkpt>
      <trkpt lat="43.46366" lon="3.63707">
        <ele>69.199996948242</ele>
        <time>2020-02-05T08:58:40Z</time>
      </trkpt>
      <trkpt lat="43.46367" lon="3.63706">
        <ele>69.199996948242</ele>
        <time>2020-02-05T08:58:42Z</time>
      </trkpt>
      <trkpt lat="43.46371" lon="3.63703">
        <ele>70.199996948242</ele>
        <time>2020-02-05T08:58:46Z</time>
      </trkpt>
      <trkpt lat="43.46382" lon="3.63689">
        <ele>70.199996948242</ele>
        <time>2020-02-05T08:59:01Z</time>
      </trkpt>
      <trkpt lat="43.46389" lon="3.63678">
        <ele>69.199996948242</ele>
        <time>2020-02-05T08:59:12Z</time>
      </trkpt>
      <trkpt lat="43.46392" lon="3.63665">
        <ele>68.199996948242</ele>
        <time>2020-02-05T08:59:21Z</time>
      </trkpt>
      <trkpt lat="43.46393" lon="3.63657">
        <ele>69.199996948242</ele>
        <time>2020-02-05T08:59:27Z</time>
      </trkpt>
      <trkpt lat="43.46398" lon="3.63632">
        <ele>67.199996948242</ele>
        <time>2020-02-05T08:59:48Z</time>
      </trkpt>
      <trkpt lat="43.46403" lon="3.63612">
        <ele>67.199996948242</ele>
        <time>2020-02-05T09:00:04Z</time>
      </trkpt>
      <trkpt lat="43.46404" lon="3.63609">
        <ele>67.199996948242</ele>
        <time>2020-02-05T09:00:07Z</time>
      </trkpt>
      <trkpt lat="43.46407" lon="3.63592">
        <ele>67.199996948242</ele>
        <time>2020-02-05T09:04:36Z</time>
      </trkpt>
      <trkpt lat="43.46405" lon="3.63593">
        <ele>68.199996948242</ele>
        <time>2020-02-05T09:04:50Z</time>
      </trkpt>
      <trkpt lat="43.46404" lon="3.63593">
        <ele>66.199996948242</ele>
        <time>2020-02-05T09:05:06Z</time>
      </trkpt>
      <trkpt lat="43.46405" lon="3.63587">
        <ele>67.199996948242</ele>
        <time>2020-02-05T09:05:13Z</time>
      </trkpt>
      <trkpt lat="43.46408" lon="3.6358">
        <ele>68.199996948242</ele>
        <time>2020-02-05T09:05:21Z</time>
      </trkpt>
      <trkpt lat="43.46408" lon="3.63578">
        <ele>69.199996948242</ele>
        <time>2020-02-05T09:05:22Z</time>
      </trkpt>
      <trkpt lat="43.46403" lon="3.63567">
        <ele>69.199996948242</ele>
        <time>2020-02-05T09:05:30Z</time>
      </trkpt>
      <trkpt lat="43.46397" lon="3.63556">
        <ele>66.199996948242</ele>
        <time>2020-02-05T09:05:39Z</time>
      </trkpt>
      <trkpt lat="43.4639" lon="3.63548">
        <ele>68.199996948242</ele>
        <time>2020-02-05T09:05:48Z</time>
      </trkpt>
      <trkpt lat="43.46384" lon="3.63542">
        <ele>68.199996948242</ele>
        <time>2020-02-05T09:05:57Z</time>
      </trkpt>
      <trkpt lat="43.46379" lon="3.63538">
        <ele>68.199996948242</ele>
        <time>2020-02-05T09:06:04Z</time>
      </trkpt>
      <trkpt lat="43.46372" lon="3.63535">
        <ele>68.199996948242</ele>
        <time>2020-02-05T09:06:12Z</time>
      </trkpt>
      <trkpt lat="43.46358" lon="3.63533">
        <ele>69.199996948242</ele>
        <time>2020-02-05T09:06:27Z</time>
      </trkpt>
      <trkpt lat="43.46353" lon="3.63532">
        <ele>69.199996948242</ele>
        <time>2020-02-05T09:06:32Z</time>
      </trkpt>
      <trkpt lat="43.46351" lon="3.63531">
        <ele>69.199996948242</ele>
        <time>2020-02-05T09:06:35Z</time>
      </trkpt>
      <trkpt lat="43.46348" lon="3.63529">
        <ele>69.199996948242</ele>
        <time>2020-02-05T09:06:38Z</time>
      </trkpt>
      <trkpt lat="43.46342" lon="3.63522">
        <ele>67.199996948242</ele>
        <time>2020-02-05T09:06:49Z</time>
      </trkpt>
      <trkpt lat="43.46338" lon="3.63512">
        <ele>67.199996948242</ele>
        <time>2020-02-05T09:07:02Z</time>
      </trkpt>
      <trkpt lat="43.46339" lon="3.63512">
        <ele>66.199996948242</ele>
        <time>2020-02-05T09:07:11Z</time>
      </trkpt>
      <trkpt lat="43.4634" lon="3.63509">
        <ele>64.199996948242</ele>
        <time>2020-02-05T09:07:15Z</time>
      </trkpt>
      <trkpt lat="43.46339" lon="3.63507">
        <ele>63.200000762939</ele>
        <time>2020-02-05T09:07:17Z</time>
      </trkpt>
      <trkpt lat="43.46337" lon="3.63501">
        <ele>62.200000762939</ele>
        <time>2020-02-05T09:07:22Z</time>
      </trkpt>
      <trkpt lat="43.46331" lon="3.63493">
        <ele>62.200000762939</ele>
        <time>2020-02-05T09:07:31Z</time>
      </trkpt>
      <trkpt lat="43.46328" lon="3.6349">
        <ele>62.200000762939</ele>
        <time>2020-02-05T09:07:35Z</time>
      </trkpt>
      <trkpt lat="43.46322" lon="3.63481">
        <ele>64.199996948242</ele>
        <time>2020-02-05T09:07:44Z</time>
      </trkpt>
      <trkpt lat="43.4632" lon="3.63477">
        <ele>65.199996948242</ele>
        <time>2020-02-05T09:07:47Z</time>
      </trkpt>
      <trkpt lat="43.46318" lon="3.63475">
        <ele>64.199996948242</ele>
        <time>2020-02-05T09:07:49Z</time>
      </trkpt>
      <trkpt lat="43.46316" lon="3.6347">
        <ele>65.199996948242</ele>
        <time>2020-02-05T09:07:53Z</time>
      </trkpt>
      <trkpt lat="43.46309" lon="3.63461">
        <ele>65.199996948242</ele>
        <time>2020-02-05T09:08:03Z</time>
      </trkpt>
      <trkpt lat="43.46307" lon="3.63455">
        <ele>65.199996948242</ele>
        <time>2020-02-05T09:08:08Z</time>
      </trkpt>
      <trkpt lat="43.46295" lon="3.63434">
        <ele>65.199996948242</ele>
        <time>2020-02-05T09:08:29Z</time>
      </trkpt>
      <trkpt lat="43.46293" lon="3.63431">
        <ele>65.199996948242</ele>
        <time>2020-02-05T09:08:32Z</time>
      </trkpt>
      <trkpt lat="43.46288" lon="3.63425">
        <ele>63.200000762939</ele>
        <time>2020-02-05T09:08:39Z</time>
      </trkpt>
      <trkpt lat="43.46285" lon="3.63421">
        <ele>63.200000762939</ele>
        <time>2020-02-05T09:08:44Z</time>
      </trkpt>
      <trkpt lat="43.46282" lon="3.63417">
        <ele>63.200000762939</ele>
        <time>2020-02-05T09:08:49Z</time>
      </trkpt>
      <trkpt lat="43.46276" lon="3.63413">
        <ele>62.200000762939</ele>
        <time>2020-02-05T09:08:55Z</time>
      </trkpt>
      <trkpt lat="43.4627" lon="3.63405">
        <ele>63.200000762939</ele>
        <time>2020-02-05T09:09:03Z</time>
      </trkpt>
      <trkpt lat="43.46269" lon="3.63402">
        <ele>64.199996948242</ele>
        <time>2020-02-05T09:09:06Z</time>
      </trkpt>
      <trkpt lat="43.46264" lon="3.63395">
        <ele>64.199996948242</ele>
        <time>2020-02-05T09:09:13Z</time>
      </trkpt>
      <trkpt lat="43.46259" lon="3.6339">
        <ele>62.200000762939</ele>
        <time>2020-02-05T09:09:19Z</time>
      </trkpt>
      <trkpt lat="43.46256" lon="3.63388">
        <ele>63.200000762939</ele>
        <time>2020-02-05T09:09:21Z</time>
      </trkpt>
      <trkpt lat="43.4625" lon="3.63376">
        <ele>62.200000762939</ele>
        <time>2020-02-05T09:09:33Z</time>
      </trkpt>
      <trkpt lat="43.46239" lon="3.63363">
        <ele>60.200000762939</ele>
        <time>2020-02-05T09:09:48Z</time>
      </trkpt>
      <trkpt lat="43.46231" lon="3.6335">
        <ele>61.200000762939</ele>
        <time>2020-02-05T09:10:01Z</time>
      </trkpt>
      <trkpt lat="43.46226" lon="3.63346">
        <ele>60.200000762939</ele>
        <time>2020-02-05T09:10:08Z</time>
      </trkpt>
      <trkpt lat="43.46224" lon="3.63344">
        <ele>60.200000762939</ele>
        <time>2020-02-05T09:10:12Z</time>
      </trkpt>
      <trkpt lat="43.4622" lon="3.63339">
        <ele>58.200000762939</ele>
        <time>2020-02-05T09:10:20Z</time>
      </trkpt>
      <trkpt lat="43.46218" lon="3.63336">
        <ele>59.200000762939</ele>
        <time>2020-02-05T09:10:23Z</time>
      </trkpt>
      <trkpt lat="43.46219" lon="3.63334">
        <ele>59.200000762939</ele>
        <time>2020-02-05T09:10:33Z</time>
      </trkpt>
      <trkpt lat="43.46218" lon="3.63334">
        <ele>62.200000762939</ele>
        <time>2020-02-05T09:11:23Z</time>
      </trkpt>
      <trkpt lat="43.46213" lon="3.63329">
        <ele>61.200000762939</ele>
        <time>2020-02-05T09:12:23Z</time>
      </trkpt>
      <trkpt lat="43.46208" lon="3.63326">
        <ele>61.200000762939</ele>
        <time>2020-02-05T09:12:30Z</time>
      </trkpt>
      <trkpt lat="43.46206" lon="3.63324">
        <ele>60.200000762939</ele>
        <time>2020-02-05T09:12:32Z</time>
      </trkpt>
      <trkpt lat="43.46206" lon="3.63322">
        <ele>58.200000762939</ele>
        <time>2020-02-05T09:12:35Z</time>
      </trkpt>
      <trkpt lat="43.46206" lon="3.63319">
        <ele>60.200000762939</ele>
        <time>2020-02-05T09:12:38Z</time>
      </trkpt>
      <trkpt lat="43.46206" lon="3.63318">
        <ele>60.200000762939</ele>
        <time>2020-02-05T09:12:39Z</time>
      </trkpt>
      <trkpt lat="43.46195" lon="3.63309">
        <ele>59.200000762939</ele>
        <time>2020-02-05T09:12:51Z</time>
      </trkpt>
      <trkpt lat="43.46192" lon="3.63306">
        <ele>58.200000762939</ele>
        <time>2020-02-05T09:12:54Z</time>
      </trkpt>
      <trkpt lat="43.46183" lon="3.6329">
        <ele>59.200000762939</ele>
        <time>2020-02-05T09:13:08Z</time>
      </trkpt>
      <trkpt lat="43.46182" lon="3.63286">
        <ele>59.200000762939</ele>
        <time>2020-02-05T09:13:11Z</time>
      </trkpt>
      <trkpt lat="43.46181" lon="3.6328">
        <ele>60.200000762939</ele>
        <time>2020-02-05T09:13:15Z</time>
      </trkpt>
      <trkpt lat="43.4618" lon="3.63278">
        <ele>60.200000762939</ele>
        <time>2020-02-05T09:13:18Z</time>
      </trkpt>
      <trkpt lat="43.46178" lon="3.63275">
        <ele>61.200000762939</ele>
        <time>2020-02-05T09:13:20Z</time>
      </trkpt>
      <trkpt lat="43.46168" lon="3.63265">
        <ele>58.200000762939</ele>
        <time>2020-02-05T09:13:35Z</time>
      </trkpt>
      <trkpt lat="43.46161" lon="3.63258">
        <ele>58.200000762939</ele>
        <time>2020-02-05T09:13:44Z</time>
      </trkpt>
      <trkpt lat="43.46156" lon="3.6325">
        <ele>60.200000762939</ele>
        <time>2020-02-05T09:13:52Z</time>
      </trkpt>
      <trkpt lat="43.46141" lon="3.63235">
        <ele>59.200000762939</ele>
        <time>2020-02-05T09:14:11Z</time>
      </trkpt>
      <trkpt lat="43.46129" lon="3.63223">
        <ele>60.200000762939</ele>
        <time>2020-02-05T09:14:27Z</time>
      </trkpt>
      <trkpt lat="43.46119" lon="3.63214">
        <ele>58.200000762939</ele>
        <time>2020-02-05T09:14:39Z</time>
      </trkpt>
      <trkpt lat="43.46116" lon="3.63209">
        <ele>59.200000762939</ele>
        <time>2020-02-05T09:14:44Z</time>
      </trkpt>
      <trkpt lat="43.46115" lon="3.63208">
        <ele>59.200000762939</ele>
        <time>2020-02-05T09:14:46Z</time>
      </trkpt>
      <trkpt lat="43.46102" lon="3.63198">
        <ele>61.200000762939</ele>
        <time>2020-02-05T09:15:00Z</time>
      </trkpt>
      <trkpt lat="43.46093" lon="3.63189">
        <ele>61.200000762939</ele>
        <time>2020-02-05T09:15:10Z</time>
      </trkpt>
      <trkpt lat="43.4609" lon="3.63185">
        <ele>59.200000762939</ele>
        <time>2020-02-05T09:15:16Z</time>
      </trkpt>
      <trkpt lat="43.46089" lon="3.63183">
        <ele>57.200000762939</ele>
        <time>2020-02-05T09:15:19Z</time>
      </trkpt>
      <trkpt lat="43.46077" lon="3.63171">
        <ele>58.200000762939</ele>
        <time>2020-02-05T09:15:34Z</time>
      </trkpt>
      <trkpt lat="43.46065" lon="3.63158">
        <ele>56.200000762939</ele>
        <time>2020-02-05T09:15:49Z</time>
      </trkpt>
      <trkpt lat="43.46057" lon="3.63151">
        <ele>54.200000762939</ele>
        <time>2020-02-05T09:16:00Z</time>
      </trkpt>
      <trkpt lat="43.46055" lon="3.6315">
        <ele>54.200000762939</ele>
        <time>2020-02-05T09:16:02Z</time>
      </trkpt>
      <trkpt lat="43.46044" lon="3.63138">
        <ele>56.200000762939</ele>
        <time>2020-02-05T09:16:16Z</time>
      </trkpt>
      <trkpt lat="43.46033" lon="3.63129">
        <ele>56.200000762939</ele>
        <time>2020-02-05T09:16:30Z</time>
      </trkpt>
      <trkpt lat="43.4603" lon="3.63128">
        <ele>56.200000762939</ele>
        <time>2020-02-05T09:16:33Z</time>
      </trkpt>
      <trkpt lat="43.46024" lon="3.63124">
        <ele>56.200000762939</ele>
        <time>2020-02-05T09:16:40Z</time>
      </trkpt>
      <trkpt lat="43.46022" lon="3.63123">
        <ele>55.200000762939</ele>
        <time>2020-02-05T09:16:45Z</time>
      </trkpt>
      <trkpt lat="43.46017" lon="3.6312">
        <ele>55.200000762939</ele>
        <time>2020-02-05T09:16:53Z</time>
      </trkpt>
      <trkpt lat="43.46013" lon="3.63118">
        <ele>53.200000762939</ele>
        <time>2020-02-05T09:17:02Z</time>
      </trkpt>
      <trkpt lat="43.46006" lon="3.63111">
        <ele>53.200000762939</ele>
        <time>2020-02-05T09:17:15Z</time>
      </trkpt>
      <trkpt lat="43.46003" lon="3.6311">
        <ele>53.200000762939</ele>
        <time>2020-02-05T09:17:20Z</time>
      </trkpt>
      <trkpt lat="43.46" lon="3.63108">
        <ele>53.200000762939</ele>
        <time>2020-02-05T09:17:24Z</time>
      </trkpt>
      <trkpt lat="43.45997" lon="3.63104">
        <ele>54.200000762939</ele>
        <time>2020-02-05T09:17:29Z</time>
      </trkpt>
      <trkpt lat="43.45988" lon="3.63091">
        <ele>51.200000762939</ele>
        <time>2020-02-05T09:17:48Z</time>
      </trkpt>
      <trkpt lat="43.45978" lon="3.63078">
        <ele>51.200000762939</ele>
        <time>2020-02-05T09:18:08Z</time>
      </trkpt>
      <trkpt lat="43.45964" lon="3.6307">
        <ele>52.200000762939</ele>
        <time>2020-02-05T09:18:26Z</time>
      </trkpt>
      <trkpt lat="43.45961" lon="3.63069">
        <ele>52.200000762939</ele>
        <time>2020-02-05T09:18:31Z</time>
      </trkpt>
      <trkpt lat="43.45959" lon="3.63068">
        <ele>51.200000762939</ele>
        <time>2020-02-05T09:18:34Z</time>
      </trkpt>
      <trkpt lat="43.45958" lon="3.63066">
        <ele>51.200000762939</ele>
        <time>2020-02-05T09:18:36Z</time>
      </trkpt>
      <trkpt lat="43.45955" lon="3.63061">
        <ele>50.200000762939</ele>
        <time>2020-02-05T09:18:43Z</time>
      </trkpt>
      <trkpt lat="43.45943" lon="3.63049">
        <ele>50.200000762939</ele>
        <time>2020-02-05T09:19:01Z</time>
      </trkpt>
      <trkpt lat="43.45942" lon="3.63047">
        <ele>50.200000762939</ele>
        <time>2020-02-05T09:19:04Z</time>
      </trkpt>
      <trkpt lat="43.4594" lon="3.63046">
        <ele>50.200000762939</ele>
        <time>2020-02-05T09:19:07Z</time>
      </trkpt>
      <trkpt lat="43.45937" lon="3.63045">
        <ele>49.200000762939</ele>
        <time>2020-02-05T09:19:11Z</time>
      </trkpt>
      <trkpt lat="43.45935" lon="3.63045">
        <ele>50.200000762939</ele>
        <time>2020-02-05T09:19:14Z</time>
      </trkpt>
      <trkpt lat="43.45921" lon="3.63051">
        <ele>51.200000762939</ele>
        <time>2020-02-05T09:19:30Z</time>
      </trkpt>
      <trkpt lat="43.45917" lon="3.63051">
        <ele>52.200000762939</ele>
        <time>2020-02-05T09:19:34Z</time>
      </trkpt>
      <trkpt lat="43.45909" lon="3.63051">
        <ele>51.200000762939</ele>
        <time>2020-02-05T09:19:43Z</time>
      </trkpt>
      <trkpt lat="43.45907" lon="3.63051">
        <ele>50.200000762939</ele>
        <time>2020-02-05T09:19:45Z</time>
      </trkpt>
      <trkpt lat="43.45905" lon="3.6305">
        <ele>50.200000762939</ele>
        <time>2020-02-05T09:19:47Z</time>
      </trkpt>
      <trkpt lat="43.459" lon="3.63047">
        <ele>51.200000762939</ele>
        <time>2020-02-05T09:19:53Z</time>
      </trkpt>
      <trkpt lat="43.45897" lon="3.63043">
        <ele>51.200000762939</ele>
        <time>2020-02-05T09:19:58Z</time>
      </trkpt>
      <trkpt lat="43.45895" lon="3.63039">
        <ele>51.200000762939</ele>
        <time>2020-02-05T09:20:02Z</time>
      </trkpt>
      <trkpt lat="43.45892" lon="3.63038">
        <ele>49.200000762939</ele>
        <time>2020-02-05T09:20:06Z</time>
      </trkpt>
      <trkpt lat="43.4589" lon="3.63039">
        <ele>49.200000762939</ele>
        <time>2020-02-05T09:20:10Z</time>
      </trkpt>
      <trkpt lat="43.45889" lon="3.6304">
        <ele>49.200000762939</ele>
        <time>2020-02-05T09:20:12Z</time>
      </trkpt>
      <trkpt lat="43.45888" lon="3.63044">
        <ele>48.200000762939</ele>
        <time>2020-02-05T09:20:15Z</time>
      </trkpt>
      <trkpt lat="43.45887" lon="3.63049">
        <ele>47.200000762939</ele>
        <time>2020-02-05T09:20:19Z</time>
      </trkpt>
      <trkpt lat="43.45886" lon="3.63052">
        <ele>47.200000762939</ele>
        <time>2020-02-05T09:20:21Z</time>
      </trkpt>
      <trkpt lat="43.45884" lon="3.63058">
        <ele>48.200000762939</ele>
        <time>2020-02-05T09:20:25Z</time>
      </trkpt>
      <trkpt lat="43.45884" lon="3.6306">
        <ele>48.200000762939</ele>
        <time>2020-02-05T09:20:27Z</time>
      </trkpt>
      <trkpt lat="43.45883" lon="3.63068">
        <ele>48.200000762939</ele>
        <time>2020-02-05T09:20:33Z</time>
      </trkpt>
      <trkpt lat="43.45882" lon="3.63071">
        <ele>48.200000762939</ele>
        <time>2020-02-05T09:20:36Z</time>
      </trkpt>
      <trkpt lat="43.45878" lon="3.6308">
        <ele>47.200000762939</ele>
        <time>2020-02-05T09:20:46Z</time>
      </trkpt>
      <trkpt lat="43.45877" lon="3.63084">
        <ele>46.200000762939</ele>
        <time>2020-02-05T09:20:49Z</time>
      </trkpt>
      <trkpt lat="43.45876" lon="3.63086">
        <ele>46.200000762939</ele>
        <time>2020-02-05T09:20:51Z</time>
      </trkpt>
      <trkpt lat="43.45871" lon="3.63092">
        <ele>46.200000762939</ele>
        <time>2020-02-05T09:20:57Z</time>
      </trkpt>
      <trkpt lat="43.4587" lon="3.63093">
        <ele>46.200000762939</ele>
        <time>2020-02-05T09:20:59Z</time>
      </trkpt>
      <trkpt lat="43.45867" lon="3.63097">
        <ele>48.200000762939</ele>
        <time>2020-02-05T09:21:03Z</time>
      </trkpt>
      <trkpt lat="43.45861" lon="3.63105">
        <ele>47.200000762939</ele>
        <time>2020-02-05T09:21:11Z</time>
      </trkpt>
      <trkpt lat="43.45853" lon="3.63115">
        <ele>49.200000762939</ele>
        <time>2020-02-05T09:21:22Z</time>
      </trkpt>
      <trkpt lat="43.4585" lon="3.63118">
        <ele>46.200000762939</ele>
        <time>2020-02-05T09:21:27Z</time>
      </trkpt>
      <trkpt lat="43.45847" lon="3.63121">
        <ele>48.200000762939</ele>
        <time>2020-02-05T09:21:30Z</time>
      </trkpt>
      <trkpt lat="43.45844" lon="3.63124">
        <ele>49.200000762939</ele>
        <time>2020-02-05T09:21:35Z</time>
      </trkpt>
      <trkpt lat="43.45842" lon="3.63127">
        <ele>48.200000762939</ele>
        <time>2020-02-05T09:21:38Z</time>
      </trkpt>
      <trkpt lat="43.45841" lon="3.63129">
        <ele>47.200000762939</ele>
        <time>2020-02-05T09:21:40Z</time>
      </trkpt>
      <trkpt lat="43.4584" lon="3.63134">
        <ele>46.200000762939</ele>
        <time>2020-02-05T09:21:45Z</time>
      </trkpt>
      <trkpt lat="43.45837" lon="3.63138">
        <ele>46.200000762939</ele>
        <time>2020-02-05T09:21:49Z</time>
      </trkpt>
      <trkpt lat="43.45836" lon="3.6314">
        <ele>47.200000762939</ele>
        <time>2020-02-05T09:21:51Z</time>
      </trkpt>
      <trkpt lat="43.45834" lon="3.63141">
        <ele>47.200000762939</ele>
        <time>2020-02-05T09:21:53Z</time>
      </trkpt>
      <trkpt lat="43.45832" lon="3.63143">
        <ele>48.200000762939</ele>
        <time>2020-02-05T09:21:55Z</time>
      </trkpt>
      <trkpt lat="43.45829" lon="3.63144">
        <ele>48.200000762939</ele>
        <time>2020-02-05T09:21:58Z</time>
      </trkpt>
      <trkpt lat="43.45826" lon="3.63144">
        <ele>48.200000762939</ele>
        <time>2020-02-05T09:22:02Z</time>
      </trkpt>
      <trkpt lat="43.45821" lon="3.63142">
        <ele>49.200000762939</ele>
        <time>2020-02-05T09:22:07Z</time>
      </trkpt>
      <trkpt lat="43.45818" lon="3.63142">
        <ele>49.200000762939</ele>
        <time>2020-02-05T09:22:09Z</time>
      </trkpt>
      <trkpt lat="43.45816" lon="3.63144">
        <ele>48.200000762939</ele>
        <time>2020-02-05T09:22:12Z</time>
      </trkpt>
      <trkpt lat="43.45813" lon="3.63148">
        <ele>47.200000762939</ele>
        <time>2020-02-05T09:22:16Z</time>
      </trkpt>
      <trkpt lat="43.45811" lon="3.63149">
        <ele>47.200000762939</ele>
        <time>2020-02-05T09:22:18Z</time>
      </trkpt>
      <trkpt lat="43.4581" lon="3.6315">
        <ele>47.200000762939</ele>
        <time>2020-02-05T09:22:19Z</time>
      </trkpt>
      <trkpt lat="43.45808" lon="3.63151">
        <ele>46.200000762939</ele>
        <time>2020-02-05T09:22:21Z</time>
      </trkpt>
      <trkpt lat="43.45806" lon="3.63151">
        <ele>47.200000762939</ele>
        <time>2020-02-05T09:22:24Z</time>
      </trkpt>
      <trkpt lat="43.45801" lon="3.63149">
        <ele>47.200000762939</ele>
        <time>2020-02-05T09:22:30Z</time>
      </trkpt>
      <trkpt lat="43.45798" lon="3.63147">
        <ele>46.200000762939</ele>
        <time>2020-02-05T09:22:35Z</time>
      </trkpt>
      <trkpt lat="43.45795" lon="3.63146">
        <ele>46.200000762939</ele>
        <time>2020-02-05T09:22:41Z</time>
      </trkpt>
      <trkpt lat="43.45795" lon="3.63144">
        <ele>47.200000762939</ele>
        <time>2020-02-05T09:24:00Z</time>
      </trkpt>
      <trkpt lat="43.45793" lon="3.63145">
        <ele>43.200000762939</ele>
        <time>2020-02-05T09:26:51Z</time>
      </trkpt>
      <trkpt lat="43.45792" lon="3.63146">
        <ele>46.200000762939</ele>
        <time>2020-02-05T09:28:45Z</time>
      </trkpt>
      <trkpt lat="43.45792" lon="3.63146">
        <ele>45.200000762939</ele>
        <time>2020-02-05T09:29:09Z</time>
      </trkpt>
      <trkpt lat="43.45794" lon="3.63143">
        <ele>41.200000762939</ele>
        <time>2020-02-05T09:29:53Z</time>
      </trkpt>
      <trkpt lat="43.45792" lon="3.6314">
        <ele>40.200000762939</ele>
        <time>2020-02-05T09:30:06Z</time>
      </trkpt>
      <trkpt lat="43.4579" lon="3.63141">
        <ele>41.200000762939</ele>
        <time>2020-02-05T09:30:19Z</time>
      </trkpt>
      <trkpt lat="43.45786" lon="3.6314">
        <ele>39.200000762939</ele>
        <time>2020-02-05T09:30:33Z</time>
      </trkpt>
      <trkpt lat="43.45785" lon="3.63138">
        <ele>38.200000762939</ele>
        <time>2020-02-05T09:30:39Z</time>
      </trkpt>
      <trkpt lat="43.45776" lon="3.63124">
        <ele>39.200000762939</ele>
        <time>2020-02-05T09:30:53Z</time>
      </trkpt>
      <trkpt lat="43.45775" lon="3.63122">
        <ele>39.200000762939</ele>
        <time>2020-02-05T09:30:55Z</time>
      </trkpt>
      <trkpt lat="43.45769" lon="3.63116">
        <ele>39.200000762939</ele>
        <time>2020-02-05T09:31:03Z</time>
      </trkpt>
      <trkpt lat="43.45765" lon="3.63111">
        <ele>38.200000762939</ele>
        <time>2020-02-05T09:31:09Z</time>
      </trkpt>
      <trkpt lat="43.45763" lon="3.63108">
        <ele>38.200000762939</ele>
        <time>2020-02-05T09:31:13Z</time>
      </trkpt>
      <trkpt lat="43.45759" lon="3.63104">
        <ele>36.200000762939</ele>
        <time>2020-02-05T09:31:20Z</time>
      </trkpt>
      <trkpt lat="43.45757" lon="3.63103">
        <ele>38.200000762939</ele>
        <time>2020-02-05T09:31:23Z</time>
      </trkpt>
      <trkpt lat="43.45751" lon="3.63099">
        <ele>37.200000762939</ele>
        <time>2020-02-05T09:31:31Z</time>
      </trkpt>
      <trkpt lat="43.45749" lon="3.63098">
        <ele>37.200000762939</ele>
        <time>2020-02-05T09:31:33Z</time>
      </trkpt>
      <trkpt lat="43.45744" lon="3.63092">
        <ele>36.200000762939</ele>
        <time>2020-02-05T09:31:41Z</time>
      </trkpt>
      <trkpt lat="43.45742" lon="3.6309">
        <ele>36.200000762939</ele>
        <time>2020-02-05T09:31:44Z</time>
      </trkpt>
      <trkpt lat="43.45736" lon="3.63088">
        <ele>36.200000762939</ele>
        <time>2020-02-05T09:31:53Z</time>
      </trkpt>
      <trkpt lat="43.45732" lon="3.63085">
        <ele>31.200000762939</ele>
        <time>2020-02-05T09:32:01Z</time>
      </trkpt>
      <trkpt lat="43.4573" lon="3.63083">
        <ele>31.200000762939</ele>
        <time>2020-02-05T09:32:06Z</time>
      </trkpt>
      <trkpt lat="43.45722" lon="3.63078">
        <ele>31.200000762939</ele>
        <time>2020-02-05T09:32:20Z</time>
      </trkpt>
      <trkpt lat="43.4572" lon="3.63076">
        <ele>31.200000762939</ele>
        <time>2020-02-05T09:32:23Z</time>
      </trkpt>
      <trkpt lat="43.45719" lon="3.63074">
        <ele>31.200000762939</ele>
        <time>2020-02-05T09:32:26Z</time>
      </trkpt>
      <trkpt lat="43.45721" lon="3.6307">
        <ele>31.200000762939</ele>
        <time>2020-02-05T09:32:33Z</time>
      </trkpt>
      <trkpt lat="43.45728" lon="3.63056">
        <ele>31.200000762939</ele>
        <time>2020-02-05T09:32:45Z</time>
      </trkpt>
      <trkpt lat="43.45728" lon="3.63052">
        <ele>31.200000762939</ele>
        <time>2020-02-05T09:32:48Z</time>
      </trkpt>
      <trkpt lat="43.45732" lon="3.63043">
        <ele>32.200000762939</ele>
        <time>2020-02-05T09:32:56Z</time>
      </trkpt>
      <trkpt lat="43.45733" lon="3.63034">
        <ele>34.200000762939</ele>
        <time>2020-02-05T09:33:03Z</time>
      </trkpt>
      <trkpt lat="43.45737" lon="3.63026">
        <ele>34.200000762939</ele>
        <time>2020-02-05T09:33:10Z</time>
      </trkpt>
      <trkpt lat="43.45738" lon="3.63024">
        <ele>33.200000762939</ele>
        <time>2020-02-05T09:33:13Z</time>
      </trkpt>
      <trkpt lat="43.45741" lon="3.63021">
        <ele>34.200000762939</ele>
        <time>2020-02-05T09:33:16Z</time>
      </trkpt>
      <trkpt lat="43.45745" lon="3.63017">
        <ele>34.200000762939</ele>
        <time>2020-02-05T09:33:20Z</time>
      </trkpt>
      <trkpt lat="43.45748" lon="3.63016">
        <ele>35.200000762939</ele>
        <time>2020-02-05T09:33:23Z</time>
      </trkpt>
      <trkpt lat="43.4575" lon="3.63015">
        <ele>36.200000762939</ele>
        <time>2020-02-05T09:33:25Z</time>
      </trkpt>
      <trkpt lat="43.45753" lon="3.63013">
        <ele>37.200000762939</ele>
        <time>2020-02-05T09:33:29Z</time>
      </trkpt>
      <trkpt lat="43.45754" lon="3.6301">
        <ele>37.200000762939</ele>
        <time>2020-02-05T09:33:32Z</time>
      </trkpt>
      <trkpt lat="43.45756" lon="3.63008">
        <ele>40.200000762939</ele>
        <time>2020-02-05T09:33:41Z</time>
      </trkpt>
      <trkpt lat="43.45755" lon="3.63006">
        <ele>41.200000762939</ele>
        <time>2020-02-05T09:33:51Z</time>
      </trkpt>
      <trkpt lat="43.45753" lon="3.63004">
        <ele>41.200000762939</ele>
        <time>2020-02-05T09:33:56Z</time>
      </trkpt>
      <trkpt lat="43.45753" lon="3.62999">
        <ele>40.200000762939</ele>
        <time>2020-02-05T09:34:00Z</time>
      </trkpt>
      <trkpt lat="43.45747" lon="3.62997">
        <ele>39.200000762939</ele>
        <time>2020-02-05T09:34:05Z</time>
      </trkpt>
      <trkpt lat="43.45745" lon="3.62996">
        <ele>40.200000762939</ele>
        <time>2020-02-05T09:34:10Z</time>
      </trkpt>
      <trkpt lat="43.45743" lon="3.62995">
        <ele>40.200000762939</ele>
        <time>2020-02-05T09:34:12Z</time>
      </trkpt>
      <trkpt lat="43.45729" lon="3.62981">
        <ele>38.200000762939</ele>
        <time>2020-02-05T09:34:31Z</time>
      </trkpt>
      <trkpt lat="43.45714" lon="3.62972">
        <ele>38.200000762939</ele>
        <time>2020-02-05T09:34:48Z</time>
      </trkpt>
      <trkpt lat="43.4571" lon="3.6297">
        <ele>38.200000762939</ele>
        <time>2020-02-05T09:34:53Z</time>
      </trkpt>
      <trkpt lat="43.45703" lon="3.62968">
        <ele>40.200000762939</ele>
        <time>2020-02-05T09:35:02Z</time>
      </trkpt>
      <trkpt lat="43.45697" lon="3.62968">
        <ele>39.200000762939</ele>
        <time>2020-02-05T09:35:08Z</time>
      </trkpt>
      <trkpt lat="43.45694" lon="3.62967">
        <ele>39.200000762939</ele>
        <time>2020-02-05T09:35:11Z</time>
      </trkpt>
      <trkpt lat="43.4568" lon="3.62961">
        <ele>40.200000762939</ele>
        <time>2020-02-05T09:35:24Z</time>
      </trkpt>
      <trkpt lat="43.45673" lon="3.62958">
        <ele>40.200000762939</ele>
        <time>2020-02-05T09:35:31Z</time>
      </trkpt>
      <trkpt lat="43.45671" lon="3.62958">
        <ele>41.200000762939</ele>
        <time>2020-02-05T09:35:33Z</time>
      </trkpt>
      <trkpt lat="43.45669" lon="3.62958">
        <ele>40.200000762939</ele>
        <time>2020-02-05T09:35:34Z</time>
      </trkpt>
      <trkpt lat="43.45666" lon="3.6296">
        <ele>39.200000762939</ele>
        <time>2020-02-05T09:35:38Z</time>
      </trkpt>
      <trkpt lat="43.45664" lon="3.62961">
        <ele>40.200000762939</ele>
        <time>2020-02-05T09:35:40Z</time>
      </trkpt>
      <trkpt lat="43.45663" lon="3.62963">
        <ele>39.200000762939</ele>
        <time>2020-02-05T09:35:42Z</time>
      </trkpt>
      <trkpt lat="43.45662" lon="3.62966">
        <ele>40.200000762939</ele>
        <time>2020-02-05T09:35:44Z</time>
      </trkpt>
      <trkpt lat="43.45661" lon="3.6297">
        <ele>39.200000762939</ele>
        <time>2020-02-05T09:35:48Z</time>
      </trkpt>
      <trkpt lat="43.45659" lon="3.62973">
        <ele>39.200000762939</ele>
        <time>2020-02-05T09:35:51Z</time>
      </trkpt>
      <trkpt lat="43.45649" lon="3.62987">
        <ele>37.200000762939</ele>
        <time>2020-02-05T09:36:05Z</time>
      </trkpt>
      <trkpt lat="43.45639" lon="3.63007">
        <ele>37.200000762939</ele>
        <time>2020-02-05T09:36:25Z</time>
      </trkpt>
      <trkpt lat="43.45631" lon="3.63024">
        <ele>38.200000762939</ele>
        <time>2020-02-05T09:36:40Z</time>
      </trkpt>
      <trkpt lat="43.45628" lon="3.63028">
        <ele>38.200000762939</ele>
        <time>2020-02-05T09:36:44Z</time>
      </trkpt>
      <trkpt lat="43.45624" lon="3.63038">
        <ele>38.200000762939</ele>
        <time>2020-02-05T09:36:52Z</time>
      </trkpt>
      <trkpt lat="43.45622" lon="3.63042">
        <ele>38.200000762939</ele>
        <time>2020-02-05T09:36:55Z</time>
      </trkpt>
      <trkpt lat="43.45621" lon="3.63043">
        <ele>38.200000762939</ele>
        <time>2020-02-05T09:36:57Z</time>
      </trkpt>
      <trkpt lat="43.45619" lon="3.63044">
        <ele>38.200000762939</ele>
        <time>2020-02-05T09:36:59Z</time>
      </trkpt>
      <trkpt lat="43.45607" lon="3.63043">
        <ele>38.200000762939</ele>
        <time>2020-02-05T09:37:12Z</time>
      </trkpt>
      <trkpt lat="43.45592" lon="3.63042">
        <ele>39.200000762939</ele>
        <time>2020-02-05T09:37:26Z</time>
      </trkpt>
      <trkpt lat="43.45577" lon="3.63042">
        <ele>41.200000762939</ele>
        <time>2020-02-05T09:37:40Z</time>
      </trkpt>
      <trkpt lat="43.45561" lon="3.63044">
        <ele>42.200000762939</ele>
        <time>2020-02-05T09:37:55Z</time>
      </trkpt>
      <trkpt lat="43.45557" lon="3.63045">
        <ele>42.200000762939</ele>
        <time>2020-02-05T09:38:00Z</time>
      </trkpt>
      <trkpt lat="43.45541" lon="3.63046">
        <ele>40.200000762939</ele>
        <time>2020-02-05T09:38:14Z</time>
      </trkpt>
      <trkpt lat="43.45531" lon="3.63049">
        <ele>41.200000762939</ele>
        <time>2020-02-05T09:38:25Z</time>
      </trkpt>
      <trkpt lat="43.45527" lon="3.63048">
        <ele>41.200000762939</ele>
        <time>2020-02-05T09:38:29Z</time>
      </trkpt>
      <trkpt lat="43.45518" lon="3.63049">
        <ele>42.200000762939</ele>
        <time>2020-02-05T09:38:38Z</time>
      </trkpt>
      <trkpt lat="43.45504" lon="3.63044">
        <ele>41.200000762939</ele>
        <time>2020-02-05T09:38:51Z</time>
      </trkpt>
      <trkpt lat="43.455" lon="3.63042">
        <ele>42.200000762939</ele>
        <time>2020-02-05T09:38:56Z</time>
      </trkpt>
      <trkpt lat="43.45493" lon="3.63042">
        <ele>40.200000762939</ele>
        <time>2020-02-05T09:39:04Z</time>
      </trkpt>
      <trkpt lat="43.45482" lon="3.63044">
        <ele>40.200000762939</ele>
        <time>2020-02-05T09:39:15Z</time>
      </trkpt>
      <trkpt lat="43.45478" lon="3.63046">
        <ele>40.200000762939</ele>
        <time>2020-02-05T09:39:20Z</time>
      </trkpt>
      <trkpt lat="43.45466" lon="3.63059">
        <ele>39.200000762939</ele>
        <time>2020-02-05T09:39:36Z</time>
      </trkpt>
      <trkpt lat="43.45463" lon="3.63061">
        <ele>39.200000762939</ele>
        <time>2020-02-05T09:39:39Z</time>
      </trkpt>
      <trkpt lat="43.45461" lon="3.63064">
        <ele>40.200000762939</ele>
        <time>2020-02-05T09:39:42Z</time>
      </trkpt>
      <trkpt lat="43.45461" lon="3.63065">
        <ele>39.200000762939</ele>
        <time>2020-02-05T09:39:43Z</time>
      </trkpt>
      <trkpt lat="43.45459" lon="3.63068">
        <ele>41.200000762939</ele>
        <time>2020-02-05T09:39:46Z</time>
      </trkpt>
      <trkpt lat="43.45458" lon="3.6307">
        <ele>41.200000762939</ele>
        <time>2020-02-05T09:39:48Z</time>
      </trkpt>
      <trkpt lat="43.45455" lon="3.6307">
        <ele>41.200000762939</ele>
        <time>2020-02-05T09:39:51Z</time>
      </trkpt>
      <trkpt lat="43.45455" lon="3.6307">
        <ele>41.200000762939</ele>
        <time>2020-02-05T09:39:51Z</time>
      </trkpt>
      <trkpt lat="43.45452" lon="3.63069">
        <ele>44.200000762939</ele>
        <time>2020-02-05T09:39:55Z</time>
      </trkpt>
      <trkpt lat="43.4545" lon="3.6307">
        <ele>44.200000762939</ele>
        <time>2020-02-05T09:39:57Z</time>
      </trkpt>
      <trkpt lat="43.45447" lon="3.63072">
        <ele>44.200000762939</ele>
        <time>2020-02-05T09:40:00Z</time>
      </trkpt>
      <trkpt lat="43.45445" lon="3.63074">
        <ele>44.200000762939</ele>
        <time>2020-02-05T09:40:01Z</time>
      </trkpt>
      <trkpt lat="43.45442" lon="3.63079">
        <ele>44.200000762939</ele>
        <time>2020-02-05T09:40:06Z</time>
      </trkpt>
      <trkpt lat="43.4544" lon="3.63085">
        <ele>44.200000762939</ele>
        <time>2020-02-05T09:40:10Z</time>
      </trkpt>
      <trkpt lat="43.4544" lon="3.63086">
        <ele>44.200000762939</ele>
        <time>2020-02-05T09:40:10Z</time>
      </trkpt>
      <trkpt lat="43.45439" lon="3.63089">
        <ele>43.200000762939</ele>
        <time>2020-02-05T09:40:13Z</time>
      </trkpt>
      <trkpt lat="43.45437" lon="3.63092">
        <ele>44.200000762939</ele>
        <time>2020-02-05T09:40:16Z</time>
      </trkpt>
      <trkpt lat="43.45428" lon="3.63099">
        <ele>44.200000762939</ele>
        <time>2020-02-05T09:40:26Z</time>
      </trkpt>
      <trkpt lat="43.45426" lon="3.631">
        <ele>44.200000762939</ele>
        <time>2020-02-05T09:40:28Z</time>
      </trkpt>
      <trkpt lat="43.45425" lon="3.63103">
        <ele>44.200000762939</ele>
        <time>2020-02-05T09:40:30Z</time>
      </trkpt>
      <trkpt lat="43.45425" lon="3.63106">
        <ele>44.200000762939</ele>
        <time>2020-02-05T09:40:32Z</time>
      </trkpt>
      <trkpt lat="43.45425" lon="3.6311">
        <ele>44.200000762939</ele>
        <time>2020-02-05T09:40:35Z</time>
      </trkpt>
      <trkpt lat="43.45425" lon="3.63112">
        <ele>44.200000762939</ele>
        <time>2020-02-05T09:40:36Z</time>
      </trkpt>
      <trkpt lat="43.45423" lon="3.63125">
        <ele>43.200000762939</ele>
        <time>2020-02-05T09:40:45Z</time>
      </trkpt>
      <trkpt lat="43.45422" lon="3.63128">
        <ele>43.200000762939</ele>
        <time>2020-02-05T09:40:48Z</time>
      </trkpt>
      <trkpt lat="43.45419" lon="3.63134">
        <ele>43.200000762939</ele>
        <time>2020-02-05T09:40:52Z</time>
      </trkpt>
      <trkpt lat="43.45416" lon="3.63138">
        <ele>43.200000762939</ele>
        <time>2020-02-05T09:40:57Z</time>
      </trkpt>
      <trkpt lat="43.45407" lon="3.63146">
        <ele>44.200000762939</ele>
        <time>2020-02-05T09:41:07Z</time>
      </trkpt>
      <trkpt lat="43.45397" lon="3.63162">
        <ele>44.200000762939</ele>
        <time>2020-02-05T09:41:22Z</time>
      </trkpt>
      <trkpt lat="43.45395" lon="3.63164">
        <ele>44.200000762939</ele>
        <time>2020-02-05T09:41:24Z</time>
      </trkpt>
      <trkpt lat="43.45392" lon="3.63172">
        <ele>42.200000762939</ele>
        <time>2020-02-05T09:41:31Z</time>
      </trkpt>
      <trkpt lat="43.45392" lon="3.63176">
        <ele>43.200000762939</ele>
        <time>2020-02-05T09:41:35Z</time>
      </trkpt>
      <trkpt lat="43.45394" lon="3.6318">
        <ele>42.200000762939</ele>
        <time>2020-02-05T09:41:40Z</time>
      </trkpt>
      <trkpt lat="43.45392" lon="3.63184">
        <ele>41.200000762939</ele>
        <time>2020-02-05T09:41:44Z</time>
      </trkpt>
      <trkpt lat="43.45388" lon="3.63189">
        <ele>41.200000762939</ele>
        <time>2020-02-05T09:41:49Z</time>
      </trkpt>
      <trkpt lat="43.45387" lon="3.63191">
        <ele>42.200000762939</ele>
        <time>2020-02-05T09:41:51Z</time>
      </trkpt>
      <trkpt lat="43.45386" lon="3.63194">
        <ele>43.200000762939</ele>
        <time>2020-02-05T09:41:53Z</time>
      </trkpt>
      <trkpt lat="43.45385" lon="3.63196">
        <ele>42.200000762939</ele>
        <time>2020-02-05T09:41:55Z</time>
      </trkpt>
      <trkpt lat="43.45381" lon="3.632">
        <ele>43.200000762939</ele>
        <time>2020-02-05T09:41:59Z</time>
      </trkpt>
      <trkpt lat="43.45379" lon="3.63203">
        <ele>43.200000762939</ele>
        <time>2020-02-05T09:42:02Z</time>
      </trkpt>
      <trkpt lat="43.45377" lon="3.63206">
        <ele>43.200000762939</ele>
        <time>2020-02-05T09:42:05Z</time>
      </trkpt>
      <trkpt lat="43.45376" lon="3.63209">
        <ele>43.200000762939</ele>
        <time>2020-02-05T09:42:08Z</time>
      </trkpt>
      <trkpt lat="43.45374" lon="3.63214">
        <ele>44.200000762939</ele>
        <time>2020-02-05T09:42:12Z</time>
      </trkpt>
      <trkpt lat="43.45373" lon="3.63218">
        <ele>43.200000762939</ele>
        <time>2020-02-05T09:42:16Z</time>
      </trkpt>
      <trkpt lat="43.45369" lon="3.63224">
        <ele>43.200000762939</ele>
        <time>2020-02-05T09:42:21Z</time>
      </trkpt>
      <trkpt lat="43.45364" lon="3.63241">
        <ele>43.200000762939</ele>
        <time>2020-02-05T09:42:35Z</time>
      </trkpt>
      <trkpt lat="43.45363" lon="3.6325">
        <ele>43.200000762939</ele>
        <time>2020-02-05T09:42:50Z</time>
      </trkpt>
      <trkpt lat="43.45362" lon="3.63257">
        <ele>41.200000762939</ele>
        <time>2020-02-05T09:43:00Z</time>
      </trkpt>
      <trkpt lat="43.45362" lon="3.6326">
        <ele>41.200000762939</ele>
        <time>2020-02-05T09:43:05Z</time>
      </trkpt>
      <trkpt lat="43.45355" lon="3.63274">
        <ele>41.200000762939</ele>
        <time>2020-02-05T09:43:14Z</time>
      </trkpt>
      <trkpt lat="43.45354" lon="3.63276">
        <ele>41.200000762939</ele>
        <time>2020-02-05T09:43:16Z</time>
      </trkpt>
      <trkpt lat="43.45353" lon="3.63282">
        <ele>40.200000762939</ele>
        <time>2020-02-05T09:43:20Z</time>
      </trkpt>
      <trkpt lat="43.45351" lon="3.63285">
        <ele>40.200000762939</ele>
        <time>2020-02-05T09:43:28Z</time>
      </trkpt>
      <trkpt lat="43.45349" lon="3.633">
        <ele>41.200000762939</ele>
        <time>2020-02-05T09:43:38Z</time>
      </trkpt>
      <trkpt lat="43.45349" lon="3.63303">
        <ele>40.200000762939</ele>
        <time>2020-02-05T09:43:40Z</time>
      </trkpt>
      <trkpt lat="43.45355" lon="3.63323">
        <ele>40.200000762939</ele>
        <time>2020-02-05T09:43:54Z</time>
      </trkpt>
      <trkpt lat="43.45358" lon="3.63332">
        <ele>40.200000762939</ele>
        <time>2020-02-05T09:44:00Z</time>
      </trkpt>
      <trkpt lat="43.45365" lon="3.63351">
        <ele>40.200000762939</ele>
        <time>2020-02-05T09:44:14Z</time>
      </trkpt>
      <trkpt lat="43.45368" lon="3.63362">
        <ele>41.200000762939</ele>
        <time>2020-02-05T09:44:21Z</time>
      </trkpt>
      <trkpt lat="43.45369" lon="3.63365">
        <ele>41.200000762939</ele>
        <time>2020-02-05T09:44:23Z</time>
      </trkpt>
      <trkpt lat="43.45374" lon="3.63385">
        <ele>40.200000762939</ele>
        <time>2020-02-05T09:44:38Z</time>
      </trkpt>
      <trkpt lat="43.45376" lon="3.63394">
        <ele>40.200000762939</ele>
        <time>2020-02-05T09:44:44Z</time>
      </trkpt>
      <trkpt lat="43.45378" lon="3.63407">
        <ele>40.200000762939</ele>
        <time>2020-02-05T09:44:54Z</time>
      </trkpt>
      <trkpt lat="43.45378" lon="3.6341">
        <ele>40.200000762939</ele>
        <time>2020-02-05T09:44:57Z</time>
      </trkpt>
      <trkpt lat="43.45381" lon="3.63419">
        <ele>40.200000762939</ele>
        <time>2020-02-05T09:45:03Z</time>
      </trkpt>
      <trkpt lat="43.45385" lon="3.63439">
        <ele>41.200000762939</ele>
        <time>2020-02-05T09:45:19Z</time>
      </trkpt>
      <trkpt lat="43.45387" lon="3.63449">
        <ele>39.200000762939</ele>
        <time>2020-02-05T09:45:27Z</time>
      </trkpt>
      <trkpt lat="43.45388" lon="3.63454">
        <ele>39.200000762939</ele>
        <time>2020-02-05T09:45:30Z</time>
      </trkpt>
      <trkpt lat="43.45389" lon="3.63457">
        <ele>39.200000762939</ele>
        <time>2020-02-05T09:45:32Z</time>
      </trkpt>
      <trkpt lat="43.4539" lon="3.63462">
        <ele>38.200000762939</ele>
        <time>2020-02-05T09:45:36Z</time>
      </trkpt>
      <trkpt lat="43.45391" lon="3.63465">
        <ele>38.200000762939</ele>
        <time>2020-02-05T09:45:39Z</time>
      </trkpt>
      <trkpt lat="43.45396" lon="3.63475">
        <ele>38.200000762939</ele>
        <time>2020-02-05T09:45:47Z</time>
      </trkpt>
      <trkpt lat="43.45399" lon="3.63489">
        <ele>39.200000762939</ele>
        <time>2020-02-05T09:45:56Z</time>
      </trkpt>
      <trkpt lat="43.45401" lon="3.63495">
        <ele>38.200000762939</ele>
        <time>2020-02-05T09:46:01Z</time>
      </trkpt>
      <trkpt lat="43.45403" lon="3.63501">
        <ele>39.200000762939</ele>
        <time>2020-02-05T09:46:06Z</time>
      </trkpt>
      <trkpt lat="43.45403" lon="3.63504">
        <ele>38.200000762939</ele>
        <time>2020-02-05T09:46:08Z</time>
      </trkpt>
      <trkpt lat="43.45403" lon="3.6351">
        <ele>38.200000762939</ele>
        <time>2020-02-05T09:46:12Z</time>
      </trkpt>
      <trkpt lat="43.45401" lon="3.63518">
        <ele>38.200000762939</ele>
        <time>2020-02-05T09:46:17Z</time>
      </trkpt>
      <trkpt lat="43.454" lon="3.6352">
        <ele>39.200000762939</ele>
        <time>2020-02-05T09:46:19Z</time>
      </trkpt>
      <trkpt lat="43.45393" lon="3.63538">
        <ele>39.200000762939</ele>
        <time>2020-02-05T09:46:33Z</time>
      </trkpt>
      <trkpt lat="43.45387" lon="3.63558">
        <ele>40.200000762939</ele>
        <time>2020-02-05T09:46:48Z</time>
      </trkpt>
      <trkpt lat="43.45384" lon="3.63569">
        <ele>38.200000762939</ele>
        <time>2020-02-05T09:46:57Z</time>
      </trkpt>
      <trkpt lat="43.45382" lon="3.63585">
        <ele>38.200000762939</ele>
        <time>2020-02-05T09:47:07Z</time>
      </trkpt>
      <trkpt lat="43.45382" lon="3.63592">
        <ele>38.200000762939</ele>
        <time>2020-02-05T09:47:12Z</time>
      </trkpt>
      <trkpt lat="43.45382" lon="3.63595">
        <ele>38.200000762939</ele>
        <time>2020-02-05T09:47:16Z</time>
      </trkpt>
      <trkpt lat="43.45382" lon="3.63597">
        <ele>38.200000762939</ele>
        <time>2020-02-05T09:47:18Z</time>
      </trkpt>
      <trkpt lat="43.45383" lon="3.63604">
        <ele>37.200000762939</ele>
        <time>2020-02-05T09:47:23Z</time>
      </trkpt>
      <trkpt lat="43.45385" lon="3.63609">
        <ele>36.200000762939</ele>
        <time>2020-02-05T09:47:27Z</time>
      </trkpt>
      <trkpt lat="43.45387" lon="3.63616">
        <ele>37.200000762939</ele>
        <time>2020-02-05T09:47:33Z</time>
      </trkpt>
      <trkpt lat="43.45391" lon="3.63621">
        <ele>38.200000762939</ele>
        <time>2020-02-05T09:47:39Z</time>
      </trkpt>
      <trkpt lat="43.45395" lon="3.63626">
        <ele>39.200000762939</ele>
        <time>2020-02-05T09:47:45Z</time>
      </trkpt>
      <trkpt lat="43.45397" lon="3.63628">
        <ele>39.200000762939</ele>
        <time>2020-02-05T09:47:48Z</time>
      </trkpt>
      <trkpt lat="43.45407" lon="3.63644">
        <ele>39.200000762939</ele>
        <time>2020-02-05T09:48:03Z</time>
      </trkpt>
      <trkpt lat="43.45417" lon="3.63658">
        <ele>40.200000762939</ele>
        <time>2020-02-05T09:48:17Z</time>
      </trkpt>
      <trkpt lat="43.45417" lon="3.63658">
        <ele>41.200000762939</ele>
        <time>2020-02-05T09:48:18Z</time>
      </trkpt>
      <trkpt lat="43.45419" lon="3.63663">
        <ele>40.200000762939</ele>
        <time>2020-02-05T09:48:28Z</time>
      </trkpt>
      <trkpt lat="43.45421" lon="3.63665">
        <ele>40.200000762939</ele>
        <time>2020-02-05T09:48:30Z</time>
      </trkpt>
      <trkpt lat="43.4543" lon="3.63675">
        <ele>40.200000762939</ele>
        <time>2020-02-05T09:48:41Z</time>
      </trkpt>
      <trkpt lat="43.45441" lon="3.63691">
        <ele>38.200000762939</ele>
        <time>2020-02-05T09:48:56Z</time>
      </trkpt>
      <trkpt lat="43.45443" lon="3.63694">
        <ele>39.200000762939</ele>
        <time>2020-02-05T09:48:59Z</time>
      </trkpt>
      <trkpt lat="43.45445" lon="3.63698">
        <ele>39.200000762939</ele>
        <time>2020-02-05T09:49:03Z</time>
      </trkpt>
      <trkpt lat="43.45454" lon="3.63708">
        <ele>39.200000762939</ele>
        <time>2020-02-05T09:49:14Z</time>
      </trkpt>
      <trkpt lat="43.45455" lon="3.6371">
        <ele>39.200000762939</ele>
        <time>2020-02-05T09:49:16Z</time>
      </trkpt>
      <trkpt lat="43.45458" lon="3.63716">
        <ele>40.200000762939</ele>
        <time>2020-02-05T09:49:21Z</time>
      </trkpt>
      <trkpt lat="43.45469" lon="3.6373">
        <ele>41.200000762939</ele>
        <time>2020-02-05T09:49:35Z</time>
      </trkpt>
      <trkpt lat="43.45479" lon="3.63746">
        <ele>40.200000762939</ele>
        <time>2020-02-05T09:49:49Z</time>
      </trkpt>
      <trkpt lat="43.45482" lon="3.63749">
        <ele>40.200000762939</ele>
        <time>2020-02-05T09:49:53Z</time>
      </trkpt>
      <trkpt lat="43.45486" lon="3.63752">
        <ele>39.200000762939</ele>
        <time>2020-02-05T09:49:59Z</time>
      </trkpt>
      <trkpt lat="43.45487" lon="3.63754">
        <ele>40.200000762939</ele>
        <time>2020-02-05T09:50:01Z</time>
      </trkpt>
      <trkpt lat="43.45495" lon="3.63769">
        <ele>41.200000762939</ele>
        <time>2020-02-05T09:50:14Z</time>
      </trkpt>
      <trkpt lat="43.45499" lon="3.63773">
        <ele>40.200000762939</ele>
        <time>2020-02-05T09:50:18Z</time>
      </trkpt>
      <trkpt lat="43.455" lon="3.63776">
        <ele>40.200000762939</ele>
        <time>2020-02-05T09:50:21Z</time>
      </trkpt>
      <trkpt lat="43.45502" lon="3.6378">
        <ele>40.200000762939</ele>
        <time>2020-02-05T09:50:25Z</time>
      </trkpt>
      <trkpt lat="43.45506" lon="3.63788">
        <ele>38.200000762939</ele>
        <time>2020-02-05T09:50:33Z</time>
      </trkpt>
      <trkpt lat="43.45511" lon="3.63797">
        <ele>39.200000762939</ele>
        <time>2020-02-05T09:50:40Z</time>
      </trkpt>
      <trkpt lat="43.45513" lon="3.638">
        <ele>38.200000762939</ele>
        <time>2020-02-05T09:50:43Z</time>
      </trkpt>
      <trkpt lat="43.45522" lon="3.63811">
        <ele>40.200000762939</ele>
        <time>2020-02-05T09:50:55Z</time>
      </trkpt>
      <trkpt lat="43.4553" lon="3.6382">
        <ele>40.200000762939</ele>
        <time>2020-02-05T09:51:04Z</time>
      </trkpt>
      <trkpt lat="43.45535" lon="3.6383">
        <ele>39.200000762939</ele>
        <time>2020-02-05T09:51:12Z</time>
      </trkpt>
      <trkpt lat="43.45536" lon="3.63833">
        <ele>39.200000762939</ele>
        <time>2020-02-05T09:51:14Z</time>
      </trkpt>
      <trkpt lat="43.45537" lon="3.63836">
        <ele>39.200000762939</ele>
        <time>2020-02-05T09:51:16Z</time>
      </trkpt>
      <trkpt lat="43.45541" lon="3.63843">
        <ele>41.200000762939</ele>
        <time>2020-02-05T09:51:22Z</time>
      </trkpt>
      <trkpt lat="43.45544" lon="3.6385">
        <ele>40.200000762939</ele>
        <time>2020-02-05T09:51:27Z</time>
      </trkpt>
      <trkpt lat="43.45555" lon="3.63864">
        <ele>39.200000762939</ele>
        <time>2020-02-05T09:51:43Z</time>
      </trkpt>
      <trkpt lat="43.45567" lon="3.63884">
        <ele>39.200000762939</ele>
        <time>2020-02-05T09:52:02Z</time>
      </trkpt>
      <trkpt lat="43.4557" lon="3.63887">
        <ele>39.200000762939</ele>
        <time>2020-02-05T09:52:06Z</time>
      </trkpt>
      <trkpt lat="43.45572" lon="3.63891">
        <ele>38.200000762939</ele>
        <time>2020-02-05T09:52:10Z</time>
      </trkpt>
      <trkpt lat="43.45574" lon="3.63895">
        <ele>38.200000762939</ele>
        <time>2020-02-05T09:52:14Z</time>
      </trkpt>
      <trkpt lat="43.45577" lon="3.63897">
        <ele>38.200000762939</ele>
        <time>2020-02-05T09:52:18Z</time>
      </trkpt>
      <trkpt lat="43.45578" lon="3.63898">
        <ele>36.200000762939</ele>
        <time>2020-02-05T09:52:28Z</time>
      </trkpt>
      <trkpt lat="43.45583" lon="3.63896">
        <ele>39.200000762939</ele>
        <time>2020-02-05T09:52:55Z</time>
      </trkpt>
      <trkpt lat="43.45588" lon="3.639">
        <ele>41.200000762939</ele>
        <time>2020-02-05T09:53:00Z</time>
      </trkpt>
      <trkpt lat="43.45591" lon="3.63901">
        <ele>41.200000762939</ele>
        <time>2020-02-05T09:53:12Z</time>
      </trkpt>
      <trkpt lat="43.45591" lon="3.63901">
        <ele>41.200000762939</ele>
        <time>2020-02-05T09:53:13Z</time>
      </trkpt>
      <trkpt lat="43.45591" lon="3.63904">
        <ele>41.200000762939</ele>
        <time>2020-02-05T09:53:24Z</time>
      </trkpt>
      <trkpt lat="43.45592" lon="3.63906">
        <ele>40.200000762939</ele>
        <time>2020-02-05T09:55:13Z</time>
      </trkpt>
      <trkpt lat="43.45593" lon="3.63909">
        <ele>40.200000762939</ele>
        <time>2020-02-05T09:55:20Z</time>
      </trkpt>
      <trkpt lat="43.45593" lon="3.63913">
        <ele>40.200000762939</ele>
        <time>2020-02-05T09:55:27Z</time>
      </trkpt>
      <trkpt lat="43.45593" lon="3.63916">
        <ele>39.200000762939</ele>
        <time>2020-02-05T09:55:29Z</time>
      </trkpt>
      <trkpt lat="43.45593" lon="3.63919">
        <ele>40.200000762939</ele>
        <time>2020-02-05T09:55:31Z</time>
      </trkpt>
      <trkpt lat="43.45594" lon="3.63922">
        <ele>40.200000762939</ele>
        <time>2020-02-05T09:55:33Z</time>
      </trkpt>
      <trkpt lat="43.45596" lon="3.63925">
        <ele>40.200000762939</ele>
        <time>2020-02-05T09:55:37Z</time>
      </trkpt>
      <trkpt lat="43.45596" lon="3.63928">
        <ele>40.200000762939</ele>
        <time>2020-02-05T09:55:40Z</time>
      </trkpt>
      <trkpt lat="43.45597" lon="3.6393">
        <ele>40.200000762939</ele>
        <time>2020-02-05T09:55:43Z</time>
      </trkpt>
      <trkpt lat="43.45602" lon="3.63937">
        <ele>41.200000762939</ele>
        <time>2020-02-05T09:55:53Z</time>
      </trkpt>
      <trkpt lat="43.45604" lon="3.6394">
        <ele>43.200000762939</ele>
        <time>2020-02-05T09:56:01Z</time>
      </trkpt>
      <trkpt lat="43.45608" lon="3.63947">
        <ele>46.200000762939</ele>
        <time>2020-02-05T09:56:10Z</time>
      </trkpt>
      <trkpt lat="43.45612" lon="3.63951">
        <ele>44.200000762939</ele>
        <time>2020-02-05T09:56:18Z</time>
      </trkpt>
      <trkpt lat="43.45614" lon="3.63955">
        <ele>44.200000762939</ele>
        <time>2020-02-05T09:56:22Z</time>
      </trkpt>
      <trkpt lat="43.45616" lon="3.63957">
        <ele>45.200000762939</ele>
        <time>2020-02-05T09:56:24Z</time>
      </trkpt>
      <trkpt lat="43.45617" lon="3.63963">
        <ele>44.200000762939</ele>
        <time>2020-02-05T09:56:29Z</time>
      </trkpt>
      <trkpt lat="43.45618" lon="3.63968">
        <ele>43.200000762939</ele>
        <time>2020-02-05T09:56:34Z</time>
      </trkpt>
      <trkpt lat="43.45619" lon="3.63972">
        <ele>43.200000762939</ele>
        <time>2020-02-05T09:56:38Z</time>
      </trkpt>
      <trkpt lat="43.45621" lon="3.63979">
        <ele>44.200000762939</ele>
        <time>2020-02-05T09:56:46Z</time>
      </trkpt>
      <trkpt lat="43.45623" lon="3.63984">
        <ele>44.200000762939</ele>
        <time>2020-02-05T09:56:52Z</time>
      </trkpt>
      <trkpt lat="43.4563" lon="3.63997">
        <ele>47.200000762939</ele>
        <time>2020-02-05T09:57:09Z</time>
      </trkpt>
      <trkpt lat="43.45637" lon="3.64008">
        <ele>50.200000762939</ele>
        <time>2020-02-05T09:57:21Z</time>
      </trkpt>
      <trkpt lat="43.45643" lon="3.64017">
        <ele>52.200000762939</ele>
        <time>2020-02-05T09:57:32Z</time>
      </trkpt>
      <trkpt lat="43.45646" lon="3.64019">
        <ele>50.200000762939</ele>
        <time>2020-02-05T09:57:36Z</time>
      </trkpt>
      <trkpt lat="43.45651" lon="3.64024">
        <ele>50.200000762939</ele>
        <time>2020-02-05T09:57:44Z</time>
      </trkpt>
      <trkpt lat="43.45653" lon="3.64027">
        <ele>49.200000762939</ele>
        <time>2020-02-05T09:57:49Z</time>
      </trkpt>
      <trkpt lat="43.45655" lon="3.64029">
        <ele>49.200000762939</ele>
        <time>2020-02-05T09:57:53Z</time>
      </trkpt>
      <trkpt lat="43.45657" lon="3.6403">
        <ele>50.200000762939</ele>
        <time>2020-02-05T09:57:58Z</time>
      </trkpt>
      <trkpt lat="43.45658" lon="3.6403">
        <ele>50.200000762939</ele>
        <time>2020-02-05T09:58:00Z</time>
      </trkpt>
      <trkpt lat="43.45661" lon="3.64031">
        <ele>51.200000762939</ele>
        <time>2020-02-05T09:58:16Z</time>
      </trkpt>
      <trkpt lat="43.45665" lon="3.64037">
        <ele>51.200000762939</ele>
        <time>2020-02-05T09:58:23Z</time>
      </trkpt>
      <trkpt lat="43.45666" lon="3.64039">
        <ele>50.200000762939</ele>
        <time>2020-02-05T09:58:25Z</time>
      </trkpt>
      <trkpt lat="43.45667" lon="3.64043">
        <ele>51.200000762939</ele>
        <time>2020-02-05T09:58:29Z</time>
      </trkpt>
      <trkpt lat="43.45667" lon="3.64048">
        <ele>51.200000762939</ele>
        <time>2020-02-05T09:58:35Z</time>
      </trkpt>
      <trkpt lat="43.45665" lon="3.64061">
        <ele>49.200000762939</ele>
        <time>2020-02-05T09:58:49Z</time>
      </trkpt>
      <trkpt lat="43.45663" lon="3.64068">
        <ele>49.200000762939</ele>
        <time>2020-02-05T09:58:57Z</time>
      </trkpt>
      <trkpt lat="43.45663" lon="3.64073">
        <ele>49.200000762939</ele>
        <time>2020-02-05T09:59:01Z</time>
      </trkpt>
      <trkpt lat="43.45662" lon="3.64076">
        <ele>50.200000762939</ele>
        <time>2020-02-05T09:59:04Z</time>
      </trkpt>
      <trkpt lat="43.4566" lon="3.64077">
        <ele>49.200000762939</ele>
        <time>2020-02-05T09:59:08Z</time>
      </trkpt>
      <trkpt lat="43.4566" lon="3.64081">
        <ele>50.200000762939</ele>
        <time>2020-02-05T09:59:13Z</time>
      </trkpt>
      <trkpt lat="43.45659" lon="3.64084">
        <ele>50.200000762939</ele>
        <time>2020-02-05T09:59:16Z</time>
      </trkpt>
      <trkpt lat="43.45654" lon="3.64097">
        <ele>49.200000762939</ele>
        <time>2020-02-05T09:59:28Z</time>
      </trkpt>
      <trkpt lat="43.45653" lon="3.64104">
        <ele>50.200000762939</ele>
        <time>2020-02-05T09:59:34Z</time>
      </trkpt>
      <trkpt lat="43.4565" lon="3.64112">
        <ele>49.200000762939</ele>
        <time>2020-02-05T09:59:43Z</time>
      </trkpt>
      <trkpt lat="43.45643" lon="3.6413">
        <ele>48.200000762939</ele>
        <time>2020-02-05T10:00:00Z</time>
      </trkpt>
      <trkpt lat="43.45642" lon="3.64133">
        <ele>49.200000762939</ele>
        <time>2020-02-05T10:00:03Z</time>
      </trkpt>
      <trkpt lat="43.45644" lon="3.64141">
        <ele>51.200000762939</ele>
        <time>2020-02-05T10:00:10Z</time>
      </trkpt>
      <trkpt lat="43.45645" lon="3.64149">
        <ele>51.200000762939</ele>
        <time>2020-02-05T10:00:16Z</time>
      </trkpt>
      <trkpt lat="43.45646" lon="3.64159">
        <ele>49.200000762939</ele>
        <time>2020-02-05T10:00:27Z</time>
      </trkpt>
      <trkpt lat="43.45646" lon="3.64164">
        <ele>52.200000762939</ele>
        <time>2020-02-05T10:00:31Z</time>
      </trkpt>
      <trkpt lat="43.45647" lon="3.64172">
        <ele>51.200000762939</ele>
        <time>2020-02-05T10:00:38Z</time>
      </trkpt>
      <trkpt lat="43.45648" lon="3.64181">
        <ele>51.200000762939</ele>
        <time>2020-02-05T10:00:48Z</time>
      </trkpt>
      <trkpt lat="43.45648" lon="3.64184">
        <ele>52.200000762939</ele>
        <time>2020-02-05T10:00:50Z</time>
      </trkpt>
      <trkpt lat="43.45647" lon="3.64189">
        <ele>52.200000762939</ele>
        <time>2020-02-05T10:00:54Z</time>
      </trkpt>
      <trkpt lat="43.45646" lon="3.64206">
        <ele>54.200000762939</ele>
        <time>2020-02-05T10:01:09Z</time>
      </trkpt>
      <trkpt lat="43.45645" lon="3.64215">
        <ele>53.200000762939</ele>
        <time>2020-02-05T10:01:18Z</time>
      </trkpt>
      <trkpt lat="43.45643" lon="3.64227">
        <ele>54.200000762939</ele>
        <time>2020-02-05T10:01:27Z</time>
      </trkpt>
      <trkpt lat="43.45641" lon="3.64241">
        <ele>57.200000762939</ele>
        <time>2020-02-05T10:01:39Z</time>
      </trkpt>
      <trkpt lat="43.45639" lon="3.64251">
        <ele>58.200000762939</ele>
        <time>2020-02-05T10:01:48Z</time>
      </trkpt>
      <trkpt lat="43.45639" lon="3.64254">
        <ele>59.200000762939</ele>
        <time>2020-02-05T10:01:50Z</time>
      </trkpt>
      <trkpt lat="43.45641" lon="3.64271">
        <ele>55.200000762939</ele>
        <time>2020-02-05T10:02:02Z</time>
      </trkpt>
      <trkpt lat="43.45641" lon="3.64276">
        <ele>55.200000762939</ele>
        <time>2020-02-05T10:02:07Z</time>
      </trkpt>
      <trkpt lat="43.4564" lon="3.64279">
        <ele>56.200000762939</ele>
        <time>2020-02-05T10:02:10Z</time>
      </trkpt>
      <trkpt lat="43.45635" lon="3.6429">
        <ele>56.200000762939</ele>
        <time>2020-02-05T10:02:23Z</time>
      </trkpt>
      <trkpt lat="43.45633" lon="3.64292">
        <ele>55.200000762939</ele>
        <time>2020-02-05T10:02:25Z</time>
      </trkpt>
      <trkpt lat="43.45624" lon="3.64298">
        <ele>57.200000762939</ele>
        <time>2020-02-05T10:02:38Z</time>
      </trkpt>
      <trkpt lat="43.45624" lon="3.64299">
        <ele>57.200000762939</ele>
        <time>2020-02-05T10:02:40Z</time>
      </trkpt>
      <trkpt lat="43.45613" lon="3.64339">
        <ele>57.200000762939</ele>
        <time>2020-02-05T10:03:36Z</time>
      </trkpt>
      <trkpt lat="43.45607" lon="3.64344">
        <ele>59.200000762939</ele>
        <time>2020-02-05T10:03:42Z</time>
      </trkpt>
      <trkpt lat="43.45604" lon="3.64347">
        <ele>56.200000762939</ele>
        <time>2020-02-05T10:03:46Z</time>
      </trkpt>
      <trkpt lat="43.456" lon="3.64352">
        <ele>56.200000762939</ele>
        <time>2020-02-05T10:03:53Z</time>
      </trkpt>
      <trkpt lat="43.45597" lon="3.64357">
        <ele>57.200000762939</ele>
        <time>2020-02-05T10:03:57Z</time>
      </trkpt>
      <trkpt lat="43.45589" lon="3.64367">
        <ele>56.200000762939</ele>
        <time>2020-02-05T10:04:10Z</time>
      </trkpt>
      <trkpt lat="43.45574" lon="3.64381">
        <ele>55.200000762939</ele>
        <time>2020-02-05T10:04:29Z</time>
      </trkpt>
      <trkpt lat="43.45568" lon="3.64387">
        <ele>57.200000762939</ele>
        <time>2020-02-05T10:04:36Z</time>
      </trkpt>
      <trkpt lat="43.45566" lon="3.64389">
        <ele>56.200000762939</ele>
        <time>2020-02-05T10:04:39Z</time>
      </trkpt>
      <trkpt lat="43.45557" lon="3.64405">
        <ele>55.200000762939</ele>
        <time>2020-02-05T10:04:54Z</time>
      </trkpt>
      <trkpt lat="43.45551" lon="3.64413">
        <ele>55.200000762939</ele>
        <time>2020-02-05T10:05:02Z</time>
      </trkpt>
      <trkpt lat="43.45546" lon="3.64424">
        <ele>56.200000762939</ele>
        <time>2020-02-05T10:05:14Z</time>
      </trkpt>
      <trkpt lat="43.45544" lon="3.64426">
        <ele>57.200000762939</ele>
        <time>2020-02-05T10:05:17Z</time>
      </trkpt>
      <trkpt lat="43.45542" lon="3.64428">
        <ele>56.200000762939</ele>
        <time>2020-02-05T10:05:22Z</time>
      </trkpt>
      <trkpt lat="43.4554" lon="3.6443">
        <ele>56.200000762939</ele>
        <time>2020-02-05T10:05:25Z</time>
      </trkpt>
      <trkpt lat="43.45538" lon="3.64433">
        <ele>57.200000762939</ele>
        <time>2020-02-05T10:05:29Z</time>
      </trkpt>
      <trkpt lat="43.45532" lon="3.64449">
        <ele>54.200000762939</ele>
        <time>2020-02-05T10:05:42Z</time>
      </trkpt>
      <trkpt lat="43.45528" lon="3.64457">
        <ele>56.200000762939</ele>
        <time>2020-02-05T10:05:50Z</time>
      </trkpt>
      <trkpt lat="43.45525" lon="3.64461">
        <ele>55.200000762939</ele>
        <time>2020-02-05T10:05:55Z</time>
      </trkpt>
      <trkpt lat="43.45517" lon="3.64472">
        <ele>53.200000762939</ele>
        <time>2020-02-05T10:06:07Z</time>
      </trkpt>
      <trkpt lat="43.4551" lon="3.6448">
        <ele>54.200000762939</ele>
        <time>2020-02-05T10:06:18Z</time>
      </trkpt>
      <trkpt lat="43.45501" lon="3.64485">
        <ele>52.200000762939</ele>
        <time>2020-02-05T10:06:29Z</time>
      </trkpt>
      <trkpt lat="43.45497" lon="3.64487">
        <ele>52.200000762939</ele>
        <time>2020-02-05T10:06:34Z</time>
      </trkpt>
      <trkpt lat="43.45495" lon="3.64488">
        <ele>52.200000762939</ele>
        <time>2020-02-05T10:06:36Z</time>
      </trkpt>
      <trkpt lat="43.45491" lon="3.6449">
        <ele>52.200000762939</ele>
        <time>2020-02-05T10:06:42Z</time>
      </trkpt>
      <trkpt lat="43.4549" lon="3.64491">
        <ele>52.200000762939</ele>
        <time>2020-02-05T10:06:46Z</time>
      </trkpt>
      <trkpt lat="43.45487" lon="3.64494">
        <ele>52.200000762939</ele>
        <time>2020-02-05T10:07:30Z</time>
      </trkpt>
      <trkpt lat="43.45486" lon="3.64494">
        <ele>51.200000762939</ele>
        <time>2020-02-05T10:07:37Z</time>
      </trkpt>
      <trkpt lat="43.45487" lon="3.64494">
        <ele>53.200000762939</ele>
        <time>2020-02-05T10:07:54Z</time>
      </trkpt>
      <trkpt lat="43.45485" lon="3.64495">
        <ele>50.200000762939</ele>
        <time>2020-02-05T10:10:08Z</time>
      </trkpt>
      <trkpt lat="43.45485" lon="3.64495">
        <ele>50.200000762939</ele>
        <time>2020-02-05T10:10:12Z</time>
      </trkpt>
      <trkpt lat="43.45481" lon="3.64495">
        <ele>50.200000762939</ele>
        <time>2020-02-05T10:11:01Z</time>
      </trkpt>
      <trkpt lat="43.4548" lon="3.64496">
        <ele>51.200000762939</ele>
        <time>2020-02-05T10:11:41Z</time>
      </trkpt>
      <trkpt lat="43.4548" lon="3.645">
        <ele>49.200000762939</ele>
        <time>2020-02-05T10:12:39Z</time>
      </trkpt>
      <trkpt lat="43.45477" lon="3.64502">
        <ele>53.200000762939</ele>
        <time>2020-02-05T10:12:49Z</time>
      </trkpt>
      <trkpt lat="43.45473" lon="3.64505">
        <ele>53.200000762939</ele>
        <time>2020-02-05T10:12:54Z</time>
      </trkpt>
      <trkpt lat="43.4547" lon="3.64509">
        <ele>54.200000762939</ele>
        <time>2020-02-05T10:12:58Z</time>
      </trkpt>
      <trkpt lat="43.45467" lon="3.64515">
        <ele>53.200000762939</ele>
        <time>2020-02-05T10:13:03Z</time>
      </trkpt>
      <trkpt lat="43.45466" lon="3.64517">
        <ele>53.200000762939</ele>
        <time>2020-02-05T10:13:05Z</time>
      </trkpt>
      <trkpt lat="43.45463" lon="3.64518">
        <ele>53.200000762939</ele>
        <time>2020-02-05T10:13:10Z</time>
      </trkpt>
      <trkpt lat="43.45458" lon="3.64523">
        <ele>53.200000762939</ele>
        <time>2020-02-05T10:13:17Z</time>
      </trkpt>
      <trkpt lat="43.45451" lon="3.64524">
        <ele>54.200000762939</ele>
        <time>2020-02-05T10:13:25Z</time>
      </trkpt>
      <trkpt lat="43.45448" lon="3.64526">
        <ele>53.200000762939</ele>
        <time>2020-02-05T10:13:29Z</time>
      </trkpt>
      <trkpt lat="43.45443" lon="3.64529">
        <ele>52.200000762939</ele>
        <time>2020-02-05T10:13:36Z</time>
      </trkpt>
      <trkpt lat="43.45442" lon="3.6453">
        <ele>51.200000762939</ele>
        <time>2020-02-05T10:13:39Z</time>
      </trkpt>
      <trkpt lat="43.4544" lon="3.64534">
        <ele>50.200000762939</ele>
        <time>2020-02-05T10:13:48Z</time>
      </trkpt>
      <trkpt lat="43.45438" lon="3.64536">
        <ele>47.200000762939</ele>
        <time>2020-02-05T10:13:58Z</time>
      </trkpt>
      <trkpt lat="43.45436" lon="3.6454">
        <ele>48.200000762939</ele>
        <time>2020-02-05T10:14:05Z</time>
      </trkpt>
      <trkpt lat="43.45436" lon="3.64543">
        <ele>48.200000762939</ele>
        <time>2020-02-05T10:14:10Z</time>
      </trkpt>
      <trkpt lat="43.45436" lon="3.64546">
        <ele>49.200000762939</ele>
        <time>2020-02-05T10:14:14Z</time>
      </trkpt>
      <trkpt lat="43.45433" lon="3.6456">
        <ele>48.200000762939</ele>
        <time>2020-02-05T10:14:25Z</time>
      </trkpt>
      <trkpt lat="43.45432" lon="3.64574">
        <ele>47.200000762939</ele>
        <time>2020-02-05T10:14:34Z</time>
      </trkpt>
      <trkpt lat="43.45433" lon="3.64578">
        <ele>47.200000762939</ele>
        <time>2020-02-05T10:14:37Z</time>
      </trkpt>
      <trkpt lat="43.45433" lon="3.64581">
        <ele>47.200000762939</ele>
        <time>2020-02-05T10:14:39Z</time>
      </trkpt>
      <trkpt lat="43.45432" lon="3.64587">
        <ele>47.200000762939</ele>
        <time>2020-02-05T10:14:44Z</time>
      </trkpt>
      <trkpt lat="43.45431" lon="3.6459">
        <ele>48.200000762939</ele>
        <time>2020-02-05T10:14:47Z</time>
      </trkpt>
      <trkpt lat="43.45432" lon="3.64597">
        <ele>47.200000762939</ele>
        <time>2020-02-05T10:14:53Z</time>
      </trkpt>
      <trkpt lat="43.45432" lon="3.64603">
        <ele>47.200000762939</ele>
        <time>2020-02-05T10:14:58Z</time>
      </trkpt>
      <trkpt lat="43.45433" lon="3.64614">
        <ele>49.200000762939</ele>
        <time>2020-02-05T10:15:06Z</time>
      </trkpt>
      <trkpt lat="43.45434" lon="3.64616">
        <ele>48.200000762939</ele>
        <time>2020-02-05T10:15:08Z</time>
      </trkpt>
      <trkpt lat="43.45433" lon="3.6462">
        <ele>48.200000762939</ele>
        <time>2020-02-05T10:15:11Z</time>
      </trkpt>
      <trkpt lat="43.45433" lon="3.64623">
        <ele>47.200000762939</ele>
        <time>2020-02-05T10:15:13Z</time>
      </trkpt>
      <trkpt lat="43.4543" lon="3.64643">
        <ele>47.200000762939</ele>
        <time>2020-02-05T10:15:28Z</time>
      </trkpt>
      <trkpt lat="43.4543" lon="3.64669">
        <ele>46.200000762939</ele>
        <time>2020-02-05T10:15:47Z</time>
      </trkpt>
      <trkpt lat="43.4543" lon="3.64672">
        <ele>47.200000762939</ele>
        <time>2020-02-05T10:15:49Z</time>
      </trkpt>
      <trkpt lat="43.45431" lon="3.6468">
        <ele>46.200000762939</ele>
        <time>2020-02-05T10:15:55Z</time>
      </trkpt>
      <trkpt lat="43.45431" lon="3.64682">
        <ele>46.200000762939</ele>
        <time>2020-02-05T10:15:57Z</time>
      </trkpt>
      <trkpt lat="43.45428" lon="3.64703">
        <ele>47.200000762939</ele>
        <time>2020-02-05T10:16:12Z</time>
      </trkpt>
      <trkpt lat="43.45426" lon="3.64729">
        <ele>47.200000762939</ele>
        <time>2020-02-05T10:16:32Z</time>
      </trkpt>
      <trkpt lat="43.45426" lon="3.64744">
        <ele>45.200000762939</ele>
        <time>2020-02-05T10:16:45Z</time>
      </trkpt>
      <trkpt lat="43.45426" lon="3.64745">
        <ele>45.200000762939</ele>
        <time>2020-02-05T10:16:45Z</time>
      </trkpt>
      <trkpt lat="43.45426" lon="3.64749">
        <ele>45.200000762939</ele>
        <time>2020-02-05T10:16:49Z</time>
      </trkpt>
      <trkpt lat="43.45425" lon="3.64751">
        <ele>45.200000762939</ele>
        <time>2020-02-05T10:16:51Z</time>
      </trkpt>
      <trkpt lat="43.45424" lon="3.6476">
        <ele>46.200000762939</ele>
        <time>2020-02-05T10:16:58Z</time>
      </trkpt>
      <trkpt lat="43.45423" lon="3.64769">
        <ele>45.200000762939</ele>
        <time>2020-02-05T10:17:05Z</time>
      </trkpt>
      <trkpt lat="43.45422" lon="3.64775">
        <ele>45.200000762939</ele>
        <time>2020-02-05T10:17:09Z</time>
      </trkpt>
      <trkpt lat="43.45421" lon="3.64778">
        <ele>45.200000762939</ele>
        <time>2020-02-05T10:17:13Z</time>
      </trkpt>
      <trkpt lat="43.4542" lon="3.64783">
        <ele>44.200000762939</ele>
        <time>2020-02-05T10:17:17Z</time>
      </trkpt>
      <trkpt lat="43.45414" lon="3.64799">
        <ele>44.200000762939</ele>
        <time>2020-02-05T10:17:32Z</time>
      </trkpt>
      <trkpt lat="43.45409" lon="3.64809">
        <ele>44.200000762939</ele>
        <time>2020-02-05T10:17:43Z</time>
      </trkpt>
      <trkpt lat="43.45404" lon="3.6482">
        <ele>43.200000762939</ele>
        <time>2020-02-05T10:17:54Z</time>
      </trkpt>
      <trkpt lat="43.45401" lon="3.64826">
        <ele>43.200000762939</ele>
        <time>2020-02-05T10:18:00Z</time>
      </trkpt>
      <trkpt lat="43.45397" lon="3.64837">
        <ele>43.200000762939</ele>
        <time>2020-02-05T10:18:11Z</time>
      </trkpt>
      <trkpt lat="43.45394" lon="3.64843">
        <ele>42.200000762939</ele>
        <time>2020-02-05T10:18:16Z</time>
      </trkpt>
      <trkpt lat="43.45393" lon="3.64846">
        <ele>43.200000762939</ele>
        <time>2020-02-05T10:18:19Z</time>
      </trkpt>
      <trkpt lat="43.45392" lon="3.6485">
        <ele>43.200000762939</ele>
        <time>2020-02-05T10:18:22Z</time>
      </trkpt>
      <trkpt lat="43.45391" lon="3.6487">
        <ele>42.200000762939</ele>
        <time>2020-02-05T10:18:41Z</time>
      </trkpt>
      <trkpt lat="43.4539" lon="3.64893">
        <ele>42.200000762939</ele>
        <time>2020-02-05T10:19:00Z</time>
      </trkpt>
      <trkpt lat="43.4539" lon="3.64899">
        <ele>42.200000762939</ele>
        <time>2020-02-05T10:19:04Z</time>
      </trkpt>
      <trkpt lat="43.4539" lon="3.6492">
        <ele>41.200000762939</ele>
        <time>2020-02-05T10:19:21Z</time>
      </trkpt>
      <trkpt lat="43.45393" lon="3.64941">
        <ele>40.200000762939</ele>
        <time>2020-02-05T10:19:35Z</time>
      </trkpt>
      <trkpt lat="43.45394" lon="3.64946">
        <ele>39.200000762939</ele>
        <time>2020-02-05T10:19:39Z</time>
      </trkpt>
      <trkpt lat="43.45397" lon="3.64953">
        <ele>37.200000762939</ele>
        <time>2020-02-05T10:19:46Z</time>
      </trkpt>
      <trkpt lat="43.45398" lon="3.64957">
        <ele>37.200000762939</ele>
        <time>2020-02-05T10:19:50Z</time>
      </trkpt>
      <trkpt lat="43.45399" lon="3.6496">
        <ele>36.200000762939</ele>
        <time>2020-02-05T10:19:53Z</time>
      </trkpt>
      <trkpt lat="43.45401" lon="3.64987">
        <ele>38.200000762939</ele>
        <time>2020-02-05T10:20:10Z</time>
      </trkpt>
      <trkpt lat="43.45402" lon="3.65008">
        <ele>38.200000762939</ele>
        <time>2020-02-05T10:20:24Z</time>
      </trkpt>
      <trkpt lat="43.45404" lon="3.65028">
        <ele>37.200000762939</ele>
        <time>2020-02-05T10:20:38Z</time>
      </trkpt>
      <trkpt lat="43.45403" lon="3.65053">
        <ele>38.200000762939</ele>
        <time>2020-02-05T10:20:55Z</time>
      </trkpt>
      <trkpt lat="43.45403" lon="3.65057">
        <ele>38.200000762939</ele>
        <time>2020-02-05T10:20:57Z</time>
      </trkpt>
      <trkpt lat="43.45402" lon="3.65059">
        <ele>38.200000762939</ele>
        <time>2020-02-05T10:20:59Z</time>
      </trkpt>
      <trkpt lat="43.45399" lon="3.65065">
        <ele>38.200000762939</ele>
        <time>2020-02-05T10:21:04Z</time>
      </trkpt>
      <trkpt lat="43.45395" lon="3.65082">
        <ele>37.200000762939</ele>
        <time>2020-02-05T10:21:16Z</time>
      </trkpt>
      <trkpt lat="43.45395" lon="3.65084">
        <ele>37.200000762939</ele>
        <time>2020-02-05T10:21:18Z</time>
      </trkpt>
      <trkpt lat="43.45395" lon="3.65105">
        <ele>36.200000762939</ele>
        <time>2020-02-05T10:21:31Z</time>
      </trkpt>
      <trkpt lat="43.45397" lon="3.6512">
        <ele>35.200000762939</ele>
        <time>2020-02-05T10:21:43Z</time>
      </trkpt>
      <trkpt lat="43.45396" lon="3.65124">
        <ele>34.200000762939</ele>
        <time>2020-02-05T10:21:47Z</time>
      </trkpt>
      <trkpt lat="43.454" lon="3.65142">
        <ele>35.200000762939</ele>
        <time>2020-02-05T10:22:02Z</time>
      </trkpt>
      <trkpt lat="43.45404" lon="3.65151">
        <ele>38.200000762939</ele>
        <time>2020-02-05T10:22:09Z</time>
      </trkpt>
      <trkpt lat="43.45405" lon="3.65155">
        <ele>37.200000762939</ele>
        <time>2020-02-05T10:22:12Z</time>
      </trkpt>
      <trkpt lat="43.45408" lon="3.65166">
        <ele>38.200000762939</ele>
        <time>2020-02-05T10:22:20Z</time>
      </trkpt>
      <trkpt lat="43.45408" lon="3.65168">
        <ele>37.200000762939</ele>
        <time>2020-02-05T10:22:22Z</time>
      </trkpt>
      <trkpt lat="43.45409" lon="3.65174">
        <ele>37.200000762939</ele>
        <time>2020-02-05T10:22:25Z</time>
      </trkpt>
      <trkpt lat="43.4541" lon="3.65186">
        <ele>38.200000762939</ele>
        <time>2020-02-05T10:22:34Z</time>
      </trkpt>
      <trkpt lat="43.45414" lon="3.65204">
        <ele>41.200000762939</ele>
        <time>2020-02-05T10:22:46Z</time>
      </trkpt>
      <trkpt lat="43.45415" lon="3.6521">
        <ele>40.200000762939</ele>
        <time>2020-02-05T10:22:50Z</time>
      </trkpt>
      <trkpt lat="43.45414" lon="3.65231">
        <ele>39.200000762939</ele>
        <time>2020-02-05T10:23:04Z</time>
      </trkpt>
      <trkpt lat="43.45414" lon="3.65238">
        <ele>39.200000762939</ele>
        <time>2020-02-05T10:23:09Z</time>
      </trkpt>
      <trkpt lat="43.45416" lon="3.65258">
        <ele>40.200000762939</ele>
        <time>2020-02-05T10:23:23Z</time>
      </trkpt>
      <trkpt lat="43.45416" lon="3.65264">
        <ele>40.200000762939</ele>
        <time>2020-02-05T10:23:27Z</time>
      </trkpt>
      <trkpt lat="43.45415" lon="3.65274">
        <ele>40.200000762939</ele>
        <time>2020-02-05T10:23:35Z</time>
      </trkpt>
      <trkpt lat="43.45415" lon="3.65277">
        <ele>40.200000762939</ele>
        <time>2020-02-05T10:23:37Z</time>
      </trkpt>
      <trkpt lat="43.45415" lon="3.65282">
        <ele>39.200000762939</ele>
        <time>2020-02-05T10:23:43Z</time>
      </trkpt>
      <trkpt lat="43.45415" lon="3.65283">
        <ele>39.200000762939</ele>
        <time>2020-02-05T10:23:45Z</time>
      </trkpt>
      <trkpt lat="43.45415" lon="3.65284">
        <ele>36.200000762939</ele>
        <time>2020-02-05T10:23:46Z</time>
      </trkpt>
      <trkpt lat="43.45416" lon="3.65285">
        <ele>37.200000762939</ele>
        <time>2020-02-05T10:23:49Z</time>
      </trkpt>
      <trkpt lat="43.45419" lon="3.65302">
        <ele>37.200000762939</ele>
        <time>2020-02-05T10:24:16Z</time>
      </trkpt>
      <trkpt lat="43.45419" lon="3.65303">
        <ele>38.200000762939</ele>
        <time>2020-02-05T10:24:18Z</time>
      </trkpt>
      <trkpt lat="43.45418" lon="3.65305">
        <ele>36.200000762939</ele>
        <time>2020-02-05T10:24:23Z</time>
      </trkpt>
      <trkpt lat="43.45418" lon="3.65308">
        <ele>36.200000762939</ele>
        <time>2020-02-05T10:24:27Z</time>
      </trkpt>
      <trkpt lat="43.45418" lon="3.65312">
        <ele>32.200000762939</ele>
        <time>2020-02-05T10:24:35Z</time>
      </trkpt>
      <trkpt lat="43.45419" lon="3.65313">
        <ele>33.200000762939</ele>
        <time>2020-02-05T10:24:55Z</time>
      </trkpt>
      <trkpt lat="43.45419" lon="3.65313">
        <ele>33.200000762939</ele>
        <time>2020-02-05T10:25:11Z</time>
      </trkpt>
    </trkseg>
  </trk>
</gpx>